M I D A S
Marine Information and Data Acquisition System
Tripno 518 of the Zeeleeuw from 2003-06-18 07:52:01 to 2003-06-18 13:06:49
Back to CruiseResearch ActivitiesStationsMapUnderway DataData graphs

EquipmentUnitsComment
TimeDGPSUTC
LatitudeDGPSDM.mWGS84
LongitudeDGPSDM.mWGS84
TemperatureSBE03/SBE38deg celciusITS90
ConductivitySBE21S/mITS90
SalinitySBE21 Practical Salinity Units
ChlorophylAChelsea fluorimeterg/lCalibrated in Aceton
Missing or incorrect values are displayed as -999
Sea surface data collected by the RV Zeeleeuw from 2003-06-18 07:52:01 to 2003-06-18 13:06:49
                                                                                    Next 1000 lines
Time Latitude Longitude Temperature Conductivity Salinity ChlorophylA
2003-06-18 07:52:07 51°14.16 2°55.38 44.362955 3.889601 27.891388 17.388118
2003-06-18 07:52:13 51°14.18 2°55.37 44.235574 3.892026 27.915881 17.3207
2003-06-18 07:52:17 51°14.18 2°55.36 43.567164 3.892975 27.929558 17.152153
2003-06-18 07:52:23 51°14.2 2°55.34 43.567164 3.892975 27.929558 17.152153
2003-06-18 07:52:29 51°14.21 2°55.33 43.644322 3.892869 27.929658 17.152153
2003-06-18 07:52:33 51°14.22 2°55.32 43.826968 3.894134 27.942569 17.185862
2003-06-18 07:52:37 51°14.23 2°55.31 44.435675 3.8993 27.987067 17.051024
2003-06-18 07:52:43 51°14.24 2°55.29 44.808071 3.907627 28.056823 17.388118
2003-06-18 07:52:47 51°14.25 2°55.28 43.857963 3.915639 28.125516 17.152153
2003-06-18 07:52:53 51°14.26 2°55.26 43.857963 3.915639 28.125516 17.152153
2003-06-18 07:52:57 51°14.27 2°55.24 44.329079 3.921016 28.170825 17.118443
2003-06-18 07:53:03 51°14.28 2°55.22 43.913756 3.920383 28.166722 17.219571
2003-06-18 07:53:07 51°14.29 2°55.21 43.655529 3.91838 28.149775 16.916187
2003-06-18 07:53:13 51°14.3 2°55.19 43.632637 3.913953 28.114418 17.253281
2003-06-18 07:53:17 51°14.31 2°55.17 43.779963 3.901935 28.015646 17.152153
2003-06-18 07:53:23 51°14.32 2°55.15 43.779963 3.901935 28.015646 17.152153
2003-06-18 07:53:29 51°14.33 2°55.12 44.030232 3.887599 27.897504 17.084734
2003-06-18 07:53:33 51°14.34 2°55.11 44.359153 3.870733 27.756028 17.051024
2003-06-18 07:53:37 51°14.35 2°55.09 44.219454 3.771549 26.965489 17.185862
2003-06-18 07:53:43 51°14.36 2°55.07 44.105103 3.84944 27.580407 17.017315
2003-06-18 07:53:47 51°14.36 2°55.05 43.978455 3.843432 27.531665 16.949896
2003-06-18 07:53:53 51°14.37 2°55.03 43.978455 3.843432 27.531665 16.949896
2003-06-18 07:53:57 51°14.38 2°55.01 44.015937 3.842589 27.525883 16.848768
2003-06-18 07:54:03 51°14.39 2°54.98 44.115924 3.846489 27.559702 16.74764
2003-06-18 07:54:07 51°14.4 2°54.97 43.46798 3.853657 27.625599 16.646512
2003-06-18 07:54:13 51°14.41 2°54.94 43.246619 3.861246 27.690716 16.545383
2003-06-18 07:54:17 51°14.41 2°54.92 43.470066 3.867571 27.748129 16.511674
2003-06-18 07:54:23 51°14.43 2°54.89 43.470066 3.867571 27.748129 16.511674
2003-06-18 07:54:27 51°14.43 2°54.88 43.471704 3.879904 27.851634 16.376836
2003-06-18 07:54:33 51°14.44 2°54.85 43.863449 3.890656 27.946377 16.343127
2003-06-18 07:54:37 51°14.45 2°54.83 43.797415 3.904993 28.069382 16.410546
2003-06-18 07:54:43 51°14.46 2°54.8 44.09011 3.923441 28.223981 16.71393
2003-06-18 07:54:47 51°14.46 2°54.78 42.992045 3.941784 28.380803 16.680221
2003-06-18 07:54:53 51°14.47 2°54.75 42.992045 3.941784 28.380803 16.680221
2003-06-18 07:54:57 51°14.48 2°54.73 43.952333 3.959812 28.536277 16.781349
2003-06-18 07:55:03 51°14.49 2°54.7 42.770227 3.97921 28.706376 16.781349
2003-06-18 07:55:07 51°14.5 2°54.68 42.903695 4.006095 28.934487 16.815059
2003-06-18 07:55:13 51°14.51 2°54.65 44.057691 4.032769 29.165776 16.882477
2003-06-18 07:55:17 51°14.52 2°54.63 44.322443 4.062398 29.421875 16.916187
2003-06-18 07:55:23 51°14.53 2°54.6 44.322443 4.062398 29.421875 16.916187
2003-06-18 07:55:27 51°14.53 2°54.58 43.233324 4.092449 29.679459 17.017315
2003-06-18 07:55:33 51°14.54 2°54.56 43.66415 4.111851 29.84739 16.410546
2003-06-18 07:55:37 51°14.55 2°54.54 42.771098 4.143486 30.120257 15.904905
2003-06-18 07:55:43 51°14.56 2°54.51 44.324272 4.161729 30.278914 16.039742
2003-06-18 07:55:47 51°14.57 2°54.49 42.812368 4.201065 30.62317 16.275708
2003-06-18 07:55:53 51°14.58 2°54.46 42.812368 4.201065 30.62317 16.275708
2003-06-18 07:55:57 51°14.59 2°54.44 42.996449 4.24325 30.98801 16.376836
2003-06-18 07:56:03 51°14.6 2°54.41 42.408587 4.274257 31.255196 16.612802
2003-06-18 07:56:07 51°14.6 2°54.4 43.399009 4.306532 31.540825 16.815059
2003-06-18 07:56:13 51°14.61 2°54.37 42.817382 4.323936 31.703213 17.253281
2003-06-18 07:56:17 51°14.62 2°54.35 42.486009 4.349989 31.928104 17.455537
2003-06-18 07:56:23 51°14.63 2°54.32 42.486009 4.349989 31.928104 17.455537
2003-06-18 07:56:27 51°14.64 2°54.3 41.477066 4.366761 32.082665 17.691503
2003-06-18 07:56:33 51°14.65 2°54.27 41.991976 4.383427 32.238274 17.758922
2003-06-18 07:56:37 51°14.66 2°54.25 42.016112 4.392499 32.328345 17.556665
2003-06-18 07:56:43 51°14.67 2°54.22 41.74934 4.404314 32.443337 17.489247
2003-06-18 07:56:47 51°14.68 2°54.2 42.022631 4.414019 32.540557 17.455537
2003-06-18 07:56:53 51°14.69 2°54.17 42.022631 4.414019 32.540557 17.455537
2003-06-18 07:56:57 51°14.69 2°54.15 42.00547 4.427417 32.668936 17.421828
2003-06-18 07:57:03 51°14.7 2°54.12 42.555317 4.43459 32.744992 17.489247
2003-06-18 07:57:07 51°14.71 2°54.1 41.537191 4.435329 32.755591 17.253281
2003-06-18 07:57:13 51°14.72 2°54.07 40.737794 4.438388 32.789308 16.916187
2003-06-18 07:57:17 51°14.73 2°54.05 42.211009 4.438705 32.799814 16.71393
2003-06-18 07:57:23 51°14.74 2°54.02 42.211009 4.438705 32.799814 16.71393
2003-06-18 07:57:27 51°14.75 2°54 42.360867 4.446722 32.877383 16.410546
2003-06-18 07:57:33 51°14.76 2°53.97 42.175673 4.453474 32.938319 16.039742
2003-06-18 07:57:37 51°14.77 2°53.95 41.526701 4.459065 32.995931 15.466683
2003-06-18 07:57:43 51°14.78 2°53.92 41.562345 4.463813 33.042622 15.264426
2003-06-18 07:57:47 51°14.79 2°53.9 40.475676 4.470565 33.11222 14.623947
2003-06-18 07:57:53 51°14.8 2°53.86 40.475676 4.470565 33.11222 14.623947
2003-06-18 07:57:57 51°14.8 2°53.84 40.747216 4.474785 33.157471 14.320563
2003-06-18 07:58:03 51°14.82 2°53.81 41.644369 4.481326 33.231746 14.152016
2003-06-18 07:58:09 51°14.83 2°53.78 40.662073 4.487656 33.297482 14.050888
2003-06-18 07:58:13 51°14.83 2°53.76 40.910447 4.493564 33.363234 13.646375
2003-06-18 07:58:17 51°14.84 2°53.74 41.677741 4.497573 33.413855 13.241862
2003-06-18 07:58:23 51°14.85 2°53.71 41.677741 4.497573 33.413855 13.241862
2003-06-18 07:58:27 51°14.86 2°53.69 41.755971 4.500844 33.454921 12.904768
2003-06-18 07:58:33 51°14.87 2°53.66 41.588467 4.502427 33.479082 12.365418
2003-06-18 07:58:37 51°14.88 2°53.64 41.321316 4.503904 33.505859 12.028324
2003-06-18 07:58:43 51°14.89 2°53.6 41.13353 4.502532 33.500816 11.320426
2003-06-18 07:58:47 51°14.9 2°53.58 41.308352 4.506225 33.53447 11.08446
2003-06-18 07:58:53 51°14.91 2°53.55 41.308352 4.506225 33.53447 11.08446
2003-06-18 07:58:57 51°14.92 2°53.53 40.537557 4.507386 33.554009 10.713657
2003-06-18 07:59:03 51°14.93 2°53.5 41.401961 4.50939 33.584086 9.870922
2003-06-18 07:59:07 51°14.94 2°53.48 41.161075 4.512978 33.624476 9.39899
2003-06-18 07:59:13 51°14.95 2°53.44 40.724984 4.513295 33.648109 8.960768
2003-06-18 07:59:17 51°14.96 2°53.42 40.663799 4.514772 33.675621 8.589965
2003-06-18 07:59:23 51°14.97 2°53.39 40.663799 4.514772 33.675621 8.589965
2003-06-18 07:59:27 51°14.98 2°53.37 41.794191 4.51741 33.721638 8.219161
2003-06-18 07:59:33 51°14.99 2°53.34 41.035903 4.519837 33.764201 7.915777
2003-06-18 07:59:37 51°15 2°53.32 41.811122 4.518571 33.764764 7.915777
2003-06-18 07:59:43 51°15.01 2°53.28 40.484572 4.517727 33.774147 7.679811
2003-06-18 07:59:47 51°15.02 2°53.26 40.234096 4.518782 33.79709 7.780939
2003-06-18 07:59:53 51°15.03 2°53.23 40.234096 4.518782 33.79709 7.780939
2003-06-18 07:59:57 51°15.04 2°53.21 41.566308 4.516884 33.794131 7.646101
2003-06-18 08:00:03 51°15.05 2°53.18 41.857459 4.491669 33.586537 7.612392
2003-06-18 08:00:09 51°15.06 2°53.14 41.581609 4.515407 33.791175 7.511264
2003-06-18 08:00:13 51°15.07 2°53.12 40.445305 4.512769 33.775551 7.612392
2003-06-18 08:00:17 51°15.08 2°53.1 40.931769 4.512347 33.774957 7.477554
2003-06-18 08:00:23 51°15.09 2°53.07 40.931769 4.512347 33.774957 7.477554
2003-06-18 08:00:27 51°15.1 2°53.05 40.875349 4.512558 33.77908 7.376426
2003-06-18 08:00:33 51°15.11 2°53.02 40.855366 4.508971 33.74961 7.342717
2003-06-18 08:00:37 51°15.12 2°52.99 41.895572 4.508339 33.748423 7.410136
2003-06-18 08:00:43 51°15.13 2°52.96 40.141811 4.507284 33.738406 7.275298
2003-06-18 08:00:47 51°15.14 2°52.94 41.760441 4.506228 33.725451 7.376426
2003-06-18 08:00:53 51°15.15 2°52.91 41.760441 4.506228 33.725451 7.376426
2003-06-18 08:00:57 51°15.16 2°52.89 40.167644 4.504435 33.706314 7.443845
2003-06-18 08:01:03 51°15.17 2°52.85 41.359647 4.50338 33.69689 7.511264
2003-06-18 08:01:09 51°15.18 2°52.82 40.584493 4.502958 33.688072 7.511264
2003-06-18 08:01:13 51°15.19 2°52.8 40.790062 4.499371 33.653931 7.511264
2003-06-18 08:01:17 51°15.19 2°52.78 41.535118 4.499898 33.653073 7.612392
2003-06-18 08:01:23 51°15.21 2°52.74 41.535118 4.499898 33.653073 7.612392
2003-06-18 08:01:27 51°15.21 2°52.72 41.944349 4.496522 33.620715 7.71352
2003-06-18 08:01:33 51°15.23 2°52.69 41.881209 4.497366 33.624266 7.679811
2003-06-18 08:01:37 51°15.23 2°52.67 41.761992 4.494939 33.596943 7.74723
2003-06-18 08:01:43 51°15.25 2°52.63 42.145953 4.499792 33.633449 7.949486
2003-06-18 08:01:47 51°15.25 2°52.61 40.830149 4.49515 33.591693 8.050614
2003-06-18 08:01:53 51°15.27 2°52.58 40.830149 4.49515 33.591693 8.050614
2003-06-18 08:01:57 51°15.27 2°52.56 42.153853 4.494306 33.579959 8.252871
2003-06-18 08:02:03 51°15.29 2°52.52 40.484479 4.492724 33.563806 8.320289
2003-06-18 08:02:07 51°15.29 2°52.5 42.126214 4.492091 33.552094 8.488836
2003-06-18 08:02:13 51°15.3 2°52.47 41.558687 4.49093 33.534229 8.691093
2003-06-18 08:02:17 51°15.31 2°52.45 40.977712 4.49093 33.530148 8.724802
2003-06-18 08:02:23 51°15.32 2°52.41 40.977712 4.49093 33.530148 8.724802
2003-06-18 08:02:27 51°15.33 2°52.39 41.786713 4.490086 33.51727 8.792221
2003-06-18 08:02:33 51°15.34 2°52.36 40.790309 4.486288 33.480306 8.960768
2003-06-18 08:02:37 51°15.35 2°52.34 41.648663 4.487132 33.480374 8.960768
2003-06-18 08:02:43 51°15.36 2°52.3 41.974749 4.486499 33.467531 8.994477
2003-06-18 08:02:47 51°15.37 2°52.28 40.94768 4.485021 33.449392 8.927059
2003-06-18 08:02:53 51°15.38 2°52.25 40.94768 4.485021 33.449392 8.927059
2003-06-18 08:02:57 51°15.39 2°52.22 42.049971 4.485338 33.445066 8.994477
2003-06-18 08:03:03 51°15.4 2°52.19 41.602971 4.484494 33.43338 8.82593
2003-06-18 08:03:07 51°15.41 2°52.17 40.474873 4.482911 33.415539 8.893349
2003-06-18 08:03:13 51°15.42 2°52.14 41.244876 4.483439 33.414141 8.893349
2003-06-18 08:03:17 51°15.43 2°52.12 41.815924 4.48365 33.411843 8.893349
2003-06-18 08:03:23 51°15.44 2°52.08 41.815924 4.48365 33.411843 8.893349
2003-06-18 08:03:27 51°15.45 2°52.06 43.160661 4.48365 33.412423 8.691093
2003-06-18 08:03:33 51°15.46 2°52.03 42.175794 4.484071 33.413623 8.724802
2003-06-18 08:03:37 51°15.47 2°52.01 42.318013 4.483966 33.412744 8.691093
2003-06-18 08:03:43 51°15.48 2°51.97 42.006168 4.484071 33.409567 8.488836
2003-06-18 08:03:47 51°15.49 2°51.95 42.154368 4.483544 33.405748 8.455127
2003-06-18 08:03:53 51°15.5 2°51.92 42.154368 4.483544 33.405748 8.455127
2003-06-18 08:03:57 51°15.51 2°51.9 42.525371 4.4827 33.396395 8.252871
2003-06-18 08:04:03 51°15.52 2°51.86 41.880693 4.483755 33.404031 8.252871
2003-06-18 08:04:07 51°15.53 2°51.84 42.047546 4.483122 33.395859 8.387708
2003-06-18 08:04:13 51°15.53 2°51.8 40.838883 4.484599 33.406434 8.488836
2003-06-18 08:04:17 51°15.54 2°51.78 41.512366 4.483122 33.393543 8.488836
2003-06-18 08:04:23 51°15.55 2°51.75 41.512366 4.483122 33.393543 8.488836
2003-06-18 08:04:27 51°15.55 2°51.72 41.599803 4.483016 33.390927 8.691093
2003-06-18 08:04:33 51°15.56 2°51.68 42.882665 4.482067 33.383592 8.691093
2003-06-18 08:04:37 51°15.56 2°51.66 42.533567 4.483122 33.393543 8.85964
2003-06-18 08:04:43 51°15.57 2°51.62 42.061516 4.482594 33.390304 8.893349
2003-06-18 08:04:47 51°15.57 2°51.6 42.364882 4.483122 33.391806 9.061896
2003-06-18 08:04:53 51°15.58 2°51.56 42.364882 4.483122 33.391806 9.061896
2003-06-18 08:04:57 51°15.58 2°51.53 41.934912 4.482489 33.388267 9.095606
2003-06-18 08:05:03 51°15.58 2°51.5 41.845307 4.485337 33.413748 9.095606
2003-06-18 08:05:07 51°15.59 2°51.47 41.090495 4.483544 33.402272 9.163024
2003-06-18 08:05:13 51°15.59 2°51.43 41.516422 4.485865 33.421623 9.129315
2003-06-18 08:05:17 51°15.59 2°51.41 42.003439 4.484493 33.413085 9.129315
2003-06-18 08:05:23 51°15.59 2°51.37 42.003439 4.484493 33.413085 9.129315
2003-06-18 08:05:27 51°15.59 2°51.34 41.840112 4.482173 33.396051 9.028187
2003-06-18 08:05:33 51°15.59 2°51.3 40.676927 4.480063 33.381354 9.095606
2003-06-18 08:05:37 51°15.59 2°51.28 40.870031 4.480696 33.392424 9.028187
2003-06-18 08:05:43 51°15.59 2°51.24 38.852299 4.481645 33.397445 9.061896
2003-06-18 08:05:49 51°15.59 2°51.2 40.547774 4.482278 33.403303 8.994477
2003-06-18 08:05:53 51°15.59 2°51.17 40.547774 4.482278 33.403303 8.994477
2003-06-18 08:05:57 51°15.59 2°51.15 40.330362 4.483755 33.412143 8.927059
2003-06-18 08:06:03 51°15.59 2°51.11 41.134726 4.481856 33.398625 9.061896
2003-06-18 08:06:07 51°15.59 2°51.08 41.909173 4.481962 33.399505 9.061896
2003-06-18 08:06:13 51°15.59 2°51.04 42.330156 4.482067 33.399806 9.061896
2003-06-18 08:06:17 51°15.59 2°51.02 42.528565 4.478691 33.372235 9.095606
2003-06-18 08:06:23 51°15.58 2°50.98 42.110378 4.487131 33.442037 9.061896
2003-06-18 08:06:27 51°15.58 2°50.95 42.110378 4.487131 33.442037 9.061896
2003-06-18 08:06:33 51°15.58 2°50.91 40.755929 4.487237 33.448139 9.365281
2003-06-18 08:06:37 51°15.58 2°50.89 42.402551 4.487131 33.444938 9.331571
2003-06-18 08:06:43 51°15.58 2°50.85 40.953577 4.486498 33.441979 9.567537
2003-06-18 08:06:47 51°15.58 2°50.82 42.32197 4.486498 33.4443 9.634956
2003-06-18 08:06:53 51°15.58 2°50.78 42.322242 4.485971 33.436419 9.567537
2003-06-18 08:06:57 51°15.58 2°50.76 42.322242 4.485971 33.436419 9.567537
2003-06-18 08:07:03 51°15.58 2°50.72 41.467971 4.485865 33.44076 9.500118
2003-06-18 08:07:07 51°15.58 2°50.69 43.065244 4.48576 33.43814 9.365281
2003-06-18 08:07:13 51°15.58 2°50.65 41.161258 4.487448 33.452221 9.365281
2003-06-18 08:07:17 51°15.58 2°50.63 42.016203 4.488397 33.463046 9.264153
2003-06-18 08:07:23 51°15.58 2°50.59 42.016203 4.488397 33.463046 9.264153
2003-06-18 08:07:27 51°15.58 2°50.56 40.668083 4.488819 33.466567 9.39899
2003-06-18 08:07:33 51°15.58 2°50.52 42.535374 4.488397 33.464788 9.331571
2003-06-18 08:07:37 51°15.58 2°50.5 42.084451 4.491351 33.492925 9.264153
2003-06-18 08:07:43 51°15.58 2°50.46 40.122795 4.49114 33.492908 9.129315
2003-06-18 08:07:47 51°15.57 2°50.43 41.102912 4.492617 33.509889 9.129315
2003-06-18 08:07:53 51°15.57 2°50.39 41.102912 4.492617 33.509889 9.129315
2003-06-18 08:07:57 51°15.57 2°50.37 19.076693 4.492828 33.509905 9.095606
2003-06-18 08:08:03 51°15.57 2°50.33 19.294605 4.494305 33.525727 8.960768
2003-06-18 08:08:07 51°15.56 2°50.3 19.337224 4.493989 33.527742 8.960768
2003-06-18 08:08:13 51°15.56 2°50.26 19.088706 4.492828 33.520381 8.994477
2003-06-18 08:08:17 51°15.56 2°50.24 19.11338 4.494833 33.540614 8.927059
2003-06-18 08:08:23 51°15.56 2°50.2 19.068328 4.494622 33.540017 9.601247
2003-06-18 08:08:27 51°15.55 2°50.17 19.068328 4.494622 33.540017 9.601247
2003-06-18 08:08:33 51°15.55 2°50.13 18.988032 4.498104 33.576678 8.252871
2003-06-18 08:08:37 51°15.54 2°50.11 18.827451 4.502535 33.62305 7.74723
2003-06-18 08:08:43 51°15.54 2°50.07 19.227048 4.506228 33.67792 7.915777
2003-06-18 08:08:47 51°15.54 2°50.04 18.918576 4.50781 33.701127 8.084324
2003-06-18 08:08:53 51°15.53 2°50 19.07616 4.508022 33.716389 8.118033
2003-06-18 08:08:57 51°15.53 2°49.98 19.07616 4.508022 33.716389 8.118033
2003-06-18 08:09:03 51°15.52 2°49.94 19.042079 4.508655 33.732849 7.848358
2003-06-18 08:09:07 51°15.52 2°49.91 19.339184 4.508655 33.744018 7.073042
2003-06-18 08:09:13 51°15.51 2°49.88 18.860526 4.509077 33.75167 6.735947
2003-06-18 08:09:17 51°15.51 2°49.85 19.154021 4.510343 33.763456 6.735947
2003-06-18 08:09:23 51°15.5 2°49.81 18.978384 4.510765 33.774646 6.735947
2003-06-18 08:09:27 51°15.5 2°49.79 18.978384 4.510765 33.774646 6.735947
2003-06-18 08:09:33 51°15.5 2°49.75 18.97937 4.510765 33.774646 6.668529
2003-06-18 08:09:37 51°15.49 2°49.72 18.907767 4.511082 33.7826 6.533691
2003-06-18 08:09:43 51°15.49 2°49.69 19.001415 4.508655 33.767556 6.432563
2003-06-18 08:09:47 51°15.48 2°49.66 19.127312 4.512031 33.799991 6.398853
2003-06-18 08:09:53 51°15.48 2°49.62 19.127312 4.512031 33.799991 6.398853
2003-06-18 08:09:57 51°15.47 2°49.6 19.021976 4.509183 33.783764 6.365144
2003-06-18 08:10:03 51°15.46 2°49.56 18.953128 4.510238 33.796741 6.230306
2003-06-18 08:10:07 51°15.46 2°49.53 18.783944 4.511399 33.81828 5.893212
2003-06-18 08:10:13 51°15.45 2°49.5 19.183789 4.512454 33.823591 5.893212
2003-06-18 08:10:17 51°15.45 2°49.47 18.980889 4.512137 33.827431 5.758375
2003-06-18 08:10:23 51°15.44 2°49.43 19.013851 4.512349 33.834518 5.690956
2003-06-18 08:10:29 51°15.43 2°49.4 19.013851 4.512349 33.834518 5.690956
2003-06-18 08:10:33 51°15.43 2°49.37 19.007694 4.516463 33.870245 5.4887
2003-06-18 08:10:37 51°15.42 2°49.34 19.122067 4.512665 33.841903 5.286443
2003-06-18 08:10:43 51°15.42 2°49.31 18.774802 4.511716 33.838069 5.219024
2003-06-18 08:10:47 51°15.41 2°49.28 18.880142 4.513826 33.856378 5.286443
2003-06-18 08:10:53 51°15.41 2°49.24 18.880142 4.513826 33.856378 5.286443
2003-06-18 08:10:57 51°15.4 2°49.22 18.95818 4.513404 33.854609 5.320153
2003-06-18 08:11:03 51°15.4 2°49.18 18.899423 4.512876 33.853136 5.387571
2003-06-18 08:11:07 51°15.39 2°49.16 19.173063 4.512876 33.857868 5.4887
2003-06-18 08:11:13 51°15.38 2°49.12 18.939244 4.512665 33.86083 5.185315
2003-06-18 08:11:17 51°15.38 2°49.1 18.872165 4.514459 33.899007 5.084187
2003-06-18 08:11:23 51°15.37 2°49.06 18.90226 4.514143 33.906429 5.016768
2003-06-18 08:11:29 51°15.37 2°49.02 18.90226 4.514143 33.906429 5.016768
2003-06-18 08:11:33 51°15.36 2°49 19.13145 4.514143 33.907022 4.91564
2003-06-18 08:11:37 51°15.36 2°48.97 18.717498 4.512877 33.895189 4.88193
2003-06-18 08:11:43 51°15.35 2°48.93 18.943516 4.513088 33.893405 4.814512
2003-06-18 08:11:47 51°15.35 2°48.91 19.072019 4.515198 33.909368 4.780802
2003-06-18 08:11:53 51°15.34 2°48.87 19.072019 4.515198 33.909368 4.780802
2003-06-18 08:11:57 51°15.34 2°48.84 18.96163 4.513299 33.890436 4.679674
2003-06-18 08:12:03 51°15.33 2°48.81 18.585697 4.512982 33.891332 4.679674
2003-06-18 08:12:07 51°15.32 2°48.78 18.786414 4.514987 33.909967 4.612255
2003-06-18 08:12:13 51°15.32 2°48.74 18.753056 4.515937 33.923293 4.477418
2003-06-18 08:12:17 51°15.31 2°48.72 18.853616 4.515726 33.929832 4.443708
2003-06-18 08:12:23 51°15.31 2°48.68 18.853616 4.515726 33.929832 4.443708
2003-06-18 08:12:27 51°15.3 2°48.66 18.885282 4.518363 33.956183 4.443708
2003-06-18 08:12:33 51°15.3 2°48.62 18.910192 4.516992 33.951776 4.477418
2003-06-18 08:12:37 51°15.29 2°48.59 18.865832 4.517098 33.958611 4.376289
2003-06-18 08:12:43 51°15.28 2°48.56 18.59829 4.518047 33.967793 4.308871
2003-06-18 08:12:47 51°15.28 2°48.53 18.733776 4.517731 33.964534 4.241452
2003-06-18 08:12:53 51°15.27 2°48.49 18.733776 4.517731 33.964534 4.241452
2003-06-18 08:12:57 51°15.27 2°48.47 18.664148 4.518891 33.979065 4.106614
2003-06-18 08:13:03 51°15.26 2°48.43 18.863117 4.518891 33.982637 3.938067
2003-06-18 08:13:09 51°15.26 2°48.39 18.826011 4.516781 33.968442 3.836939
2003-06-18 08:13:13 51°15.25 2°48.37 18.755445 4.520263 34.002528 3.76952
2003-06-18 08:13:17 51°15.25 2°48.34 19.18862 4.518891 33.995743 3.735811
2003-06-18 08:13:23 51°15.24 2°48.3 19.18862 4.518891 33.995743 3.735811
2003-06-18 08:13:29 51°15.23 2°48.27 19.11965 4.519102 33.998116 3.870648
2003-06-18 08:13:33 51°15.23 2°48.24 19.045894 4.518786 33.997238 3.836939
2003-06-18 08:13:37 51°15.23 2°48.22 18.804733 4.517204 33.985098 3.870648
2003-06-18 08:13:43 51°15.22 2°48.18 18.795307 4.518575 34.000825 3.870648
2003-06-18 08:13:47 51°15.21 2°48.15 18.681592 4.519419 34.009129 3.904358
2003-06-18 08:13:53 51°15.21 2°48.12 18.681592 4.519419 34.009129 3.904358
2003-06-18 08:13:57 51°15.2 2°48.09 18.806051 4.520263 34.016241 3.870648
2003-06-18 08:14:03 51°15.2 2°48.05 18.733528 4.521424 34.030198 3.870648
2003-06-18 08:14:09 51°15.19 2°48.02 18.591891 4.51636 33.994677 3.836939
2003-06-18 08:14:13 51°15.19 2°47.99 18.681675 4.519947 34.028493 3.735811
2003-06-18 08:14:17 51°15.18 2°47.97 18.594203 4.519736 34.030297 3.668392
2003-06-18 08:14:23 51°15.18 2°47.93 18.594203 4.519736 34.030297 3.668392
2003-06-18 08:14:27 51°15.17 2°47.9 18.636096 4.521319 34.052005 3.600973
2003-06-18 08:14:33 51°15.16 2°47.87 18.355779 4.521108 34.056203 3.499845
2003-06-18 08:14:37 51°15.16 2°47.84 18.651897 4.519314 34.050042 3.398717
2003-06-18 08:14:43 51°15.15 2°47.81 18.986021 4.51731 34.041501 3.365007
2003-06-18 08:14:47 51°15.15 2°47.78 18.717787 4.518471 34.054285 3.331298
2003-06-18 08:14:53 51°15.14 2°47.74 18.717787 4.518471 34.054285 3.331298
2003-06-18 08:14:57 51°15.14 2°47.72 18.748072 4.517099 34.05348 3.19646
2003-06-18 08:15:01 51°15.13 2°47.69 18.800453 4.520054 34.096397 3.061623
2003-06-18 08:15:05 51°15.13 2°47.67 18.948897 4.518049 34.087259 2.994204
2003-06-18 08:15:11 51°15.12 2°47.63 18.638489 4.519632 34.11023 2.960494
2003-06-18 08:15:15 51°15.12 2°47.61 18.62578 4.519843 34.12042 2.960494
2003-06-18 08:15:19 51°15.11 2°47.58 18.62578 4.519843 34.12042 2.960494
2003-06-18 08:15:23 51°15.11 2°47.56 18.580825 4.517944 34.10857 2.994204
2003-06-18 08:15:29 51°15.1 2°47.52 18.611458 4.518683 34.116615 2.926785
2003-06-18 08:15:33 51°15.1 2°47.49 18.636839 4.516467 34.107493 2.791947
2003-06-18 08:15:37 51°15.1 2°47.47 18.281127 4.516467 34.116506 2.758238
2003-06-18 08:15:43 51°15.09 2°47.43 18.529147 4.517628 34.137149 2.65711
2003-06-18 08:15:49 51°15.08 2°47.4 18.529147 4.517628 34.137149 2.65711
2003-06-18 08:15:53 51°15.08 2°47.37 18.666169 4.516362 34.135461 2.589691
2003-06-18 08:15:57 51°15.07 2°47.35 18.277187 4.515729 34.140938 2.555982
2003-06-18 08:16:03 51°15.07 2°47.31 18.495665 4.515097 34.1416 2.454853
2003-06-18 08:16:09 51°15.06 2°47.27 18.645255 4.514358 34.153423 2.387435
2003-06-18 08:16:13 51°15.06 2°47.25 18.428986 4.514464 34.178451 2.252597
2003-06-18 08:16:17 51°15.05 2°47.22 18.426751 4.512671 34.192243 2.252597
2003-06-18 08:16:23 51°15.05 2°47.19 18.426751 4.512671 34.192243 2.252597
2003-06-18 08:16:29 51°15.04 2°47.15 18.453812 4.510984 34.203933 2.151469
2003-06-18 08:16:33 51°15.03 2°47.13 18.580866 4.510035 34.212828 2.08405
2003-06-18 08:16:37 51°15.03 2°47.1 18.40531 4.509085 34.226587 2.050341
2003-06-18 08:16:43 51°15.02 2°47.06 18.369408 4.506554 34.219016 2.016631
2003-06-18 08:16:49 51°15.02 2°47.03 18.369408 4.506554 34.219016 2.016631
2003-06-18 08:16:53 51°15.01 2°47 18.468124 4.506026 34.227884 2.050341
2003-06-18 08:16:57 51°15.01 2°46.98 18.465891 4.503706 34.219678 1.982922
2003-06-18 08:17:03 51°15 2°46.94 18.537948 4.504444 34.229606 2.050341
2003-06-18 08:17:09 51°15 2°46.9 18.605225 4.503495 34.230641 2.08405
2003-06-18 08:17:13 51°14.99 2°46.88 18.399307 4.502123 34.226261 2.151469
2003-06-18 08:17:17 51°14.99 2°46.85 18.399307 4.502123 34.226261 2.151469
2003-06-18 08:17:23 51°14.98 2°46.82 18.441441 4.502546 34.234718 2.08405
2003-06-18 08:17:29 51°14.97 2°46.78 18.309737 4.501596 34.230282 2.151469
2003-06-18 08:17:33 51°14.97 2°46.76 18.545096 4.502968 34.244394 2.151469
2003-06-18 08:17:37 51°14.96 2°46.73 18.204277 4.500541 34.224339 2.117759
2003-06-18 08:17:43 51°14.95 2°46.7 18.473377 4.50033 34.224975 2.185178
2003-06-18 08:17:49 51°14.95 2°46.66 18.473377 4.50033 34.224975 2.185178
2003-06-18 08:17:53 51°14.94 2°46.64 18.433579 4.499908 34.220165 2.117759
2003-06-18 08:17:57 51°14.93 2°46.61 18.28909 4.500436 34.222225 2.050341
2003-06-18 08:18:03 51°14.93 2°46.58 18.484543 4.50033 34.220719 2.016631
2003-06-18 08:18:09 51°14.92 2°46.54 18.383696 4.499275 34.211736 2.016631
2003-06-18 08:18:13 51°14.91 2°46.52 18.41868 4.500119 34.218922 1.982922
2003-06-18 08:18:17 51°14.91 2°46.49 18.41868 4.500119 34.218922 1.982922
2003-06-18 08:18:23 51°14.9 2°46.46 18.473087 4.500119 34.218922 1.915503
2003-06-18 08:18:29 51°14.89 2°46.42 18.010864 4.50033 34.223759 1.982922
2003-06-18 08:18:33 51°14.89 2°46.4 18.340988 4.499592 34.222943 2.050341
2003-06-18 08:18:37 51°14.88 2°46.37 18.503479 4.499592 34.22781 2.050341
2003-06-18 08:18:43 51°14.88 2°46.33 18.192402 4.499381 34.230271 2.08405
2003-06-18 08:18:49 51°14.87 2°46.3 18.192402 4.499381 34.230271 2.08405
2003-06-18 08:18:53 51°14.87 2°46.27 18.327934 4.498853 34.225169 2.050341
2003-06-18 08:18:57 51°14.86 2°46.25 18.396657 4.498748 34.232791 2.050341
2003-06-18 08:19:03 51°14.85 2°46.21 18.395373 4.498221 34.238038 1.982922
2003-06-18 08:19:09 51°14.85 2°46.17 18.363236 4.498537 34.248046 2.016631
2003-06-18 08:19:13 51°14.84 2°46.15 18.329053 4.496955 34.242477 2.050341
2003-06-18 08:19:17 51°14.84 2°46.13 18.329053 4.496955 34.242477 2.050341
2003-06-18 08:19:23 51°14.83 2°46.09 18.392599 4.496217 34.243494 1.982922
2003-06-18 08:19:29 51°14.82 2°46.05 18.222004 4.49685 34.251941 1.949212
2003-06-18 08:19:33 51°14.82 2°46.03 18.358182 4.495689 34.245702 1.949212
2003-06-18 08:19:37 51°14.81 2°46 18.426047 4.4959 34.247501 1.881794
2003-06-18 08:19:43 51°14.8 2°45.97 18.359135 4.494634 34.236703 1.848084
2003-06-18 08:19:49 51°14.8 2°45.93 18.561868 4.49474 34.241871 1.848084
2003-06-18 08:19:53 51°14.79 2°45.91 18.561868 4.49474 34.241871 1.848084
2003-06-18 08:19:57 51°14.79 2°45.88 18.252547 4.495267 34.243931 1.848084
2003-06-18 08:20:03 51°14.78 2°45.84 18.314256 4.495056 34.245181 1.848084
2003-06-18 08:20:09 51°14.78 2°45.81 18.442807 4.496428 34.256881 1.881794
2003-06-18 08:20:13 51°14.77 2°45.78 18.157304 4.49474 34.241871 1.881794
2003-06-18 08:20:17 51°14.77 2°45.76 18.157304 4.49474 34.241871 1.881794
2003-06-18 08:20:23 51°14.76 2°45.72 18.382123 4.495056 34.243351 1.814375
2003-06-18 08:20:29 51°14.75 2°45.68 18.166028 4.495162 34.247911 1.780665
2003-06-18 08:20:33 51°14.74 2°45.66 18.013112 4.495267 34.251251 1.746956
2003-06-18 08:20:37 51°14.74 2°45.63 18.130959 4.494212 34.24286 1.679537
2003-06-18 08:20:43 51°14.73 2°45.6 18.081981 4.494213 34.249571 1.679537
2003-06-18 08:20:49 51°14.72 2°45.56 18.081981 4.494213 34.249571 1.679537
2003-06-18 08:20:53 51°14.72 2°45.53 18.209592 4.493896 34.257246 1.612118
2003-06-18 08:20:57 51°14.71 2°45.51 18.238273 4.493263 34.25856 1.645828
2003-06-18 08:21:03 51°14.71 2°45.47 18.267523 4.493158 34.266823 1.612118
2003-06-18 08:21:05 51°14.71 2°45.46 18.195558 4.491154 34.257037 1.612118
2003-06-18 08:21:13 51°14.7 2°45.41 17.953468 4.490732 34.266269 1.645828
2003-06-18 08:21:17 51°14.69 2°45.38 17.953468 4.490732 34.266269 1.645828
2003-06-18 08:21:23 51°14.68 2°45.35 18.053609 4.490205 34.277055 1.679537
2003-06-18 08:21:29 51°14.68 2°45.31 18.42584 4.488833 34.275124 1.645828
2003-06-18 08:21:33 51°14.67 2°45.29 18.187211 4.486829 34.271454 1.645828
2003-06-18 08:21:37 51°14.67 2°45.26 17.944717 4.486724 34.269939 1.612118
2003-06-18 08:21:43 51°14.66 2°45.22 18.24902 4.486724 34.276064 1.612118
2003-06-18 08:21:49 51°14.65 2°45.19 18.24902 4.486724 34.276064 1.612118
2003-06-18 08:21:53 51°14.64 2°45.16 18.281542 4.485774 34.27223 1.612118
2003-06-18 08:21:57 51°14.64 2°45.14 18.312432 4.486724 34.280966 1.578409
2003-06-18 08:22:03 51°14.63 2°45.1 18.210048 4.485247 34.272006 1.612118
2003-06-18 08:22:09 51°14.62 2°45.06 18.003952 4.484403 34.267848 1.612118
2003-06-18 08:22:13 51°14.62 2°45.04 18.278846 4.483559 34.26369 1.612118
2003-06-18 08:22:17 51°14.62 2°45.01 18.278846 4.483559 34.26369 1.612118
2003-06-18 08:22:23 51°14.61 2°44.98 18.110424 4.484509 34.273041 1.612118
2003-06-18 08:22:29 51°14.6 2°44.94 18.345422 4.483981 34.270365 1.645828
2003-06-18 08:22:33 51°14.59 2°44.92 17.971341 4.483348 34.268625 1.645828
2003-06-18 08:22:37 51°14.59 2°44.89 18.140725 4.483876 34.271914 1.645828
2003-06-18 08:22:43 51°14.58 2°44.85 18.073662 4.483137 34.268658 1.578409
2003-06-18 08:22:49 51°14.57 2°44.82 18.073662 4.483137 34.268658 1.578409
2003-06-18 08:22:53 51°14.57 2°44.79 18.176911 4.482926 34.265627 1.578409
2003-06-18 08:22:57 51°14.56 2°44.77 18.344303 4.482821 34.263498 1.578409
2003-06-18 08:23:03 51°14.56 2°44.73 18.311603 4.484087 34.274333 1.612118
2003-06-18 08:23:09 51°14.55 2°44.69 18.141681 4.482399 34.263564 1.612118
2003-06-18 08:23:13 51°14.54 2°44.67 18.177161 4.482715 34.264434 1.612118
2003-06-18 08:23:17 51°14.54 2°44.64 18.177161 4.482715 34.264434 1.612118
2003-06-18 08:23:23 51°14.53 2°44.61 18.175665 4.481766 34.255695 1.612118
2003-06-18 08:23:29 51°14.52 2°44.57 18.20818 4.481766 34.258146 1.612118
2003-06-18 08:23:33 51°14.52 2°44.54 18.172633 4.481238 34.253632 1.612118
2003-06-18 08:23:37 51°14.51 2°44.52 18.106058 4.48261 34.262305 1.5447
2003-06-18 08:23:43 51°14.51 2°44.48 18.344634 4.481449 34.256663 1.5447
2003-06-18 08:23:49 51°14.5 2°44.45 18.344634 4.481449 34.256663 1.5447
2003-06-18 08:23:53 51°14.49 2°44.42 18.002328 4.482399 34.264177 1.5447
2003-06-18 08:23:57 51°14.49 2°44.4 18.138315 4.48261 34.262918 1.612118
2003-06-18 08:24:03 51°14.48 2°44.36 18.27557 4.48261 34.265983 1.612118
2003-06-18 08:24:09 51°14.47 2°44.32 18.102607 4.482293 34.2645 1.578409
2003-06-18 08:24:13 51°14.47 2°44.3 18.172259 4.481871 34.259049 1.578409
2003-06-18 08:24:17 51°14.46 2°44.27 18.172259 4.481871 34.259049 1.578409
2003-06-18 08:24:23 51°14.46 2°44.24 18.173007 4.482821 34.267789 1.578409
2003-06-18 08:24:29 51°14.45 2°44.2 18.511375 4.483137 34.270497 1.5447
2003-06-18 08:24:33 51°14.45 2°44.17 18.376407 4.482188 34.26421 1.578409
2003-06-18 08:24:37 51°14.44 2°44.15 18.004702 4.479867 34.244957 1.612118
2003-06-18 08:24:43 51°14.44 2°44.11 18.175873 4.48166 34.259082 1.679537
2003-06-18 08:24:49 51°14.43 2°44.07 18.175873 4.48166 34.259082 1.679537
2003-06-18 08:24:53 51°14.43 2°44.05 18.280671 4.481133 34.25518 1.780665
2003-06-18 08:24:57 51°14.42 2°44.02 18.110881 4.480078 34.247988 1.848084
2003-06-18 08:25:03 51°14.42 2°43.99 18.144922 4.481766 34.260598 1.881794
2003-06-18 08:25:05 51°14.41 2°43.97 18.178116 4.481027 34.253664 1.915503
2003-06-18 08:25:13 51°14.41 2°43.92 18.077239 4.480183 34.247053 1.848084
2003-06-18 08:25:17 51°14.4 2°43.9 18.077239 4.480183 34.247053 1.848084
2003-06-18 08:25:23 51°14.4 2°43.86 18.149618 4.483032 34.27266 1.814375
2003-06-18 08:25:29 51°14.39 2°43.82 18.151404 4.483032 34.270208 1.780665
2003-06-18 08:25:33 51°14.39 2°43.8 18.116535 4.484087 34.277398 1.915503
2003-06-18 08:25:37 51°14.39 2°43.77 18.251841 4.48261 34.267209 2.016631
2003-06-18 08:25:43 51°14.38 2°43.73 18.045245 4.484614 34.27946 2.08405
2003-06-18 08:25:49 51°14.38 2°43.69 18.045245 4.484614 34.27946 2.08405
2003-06-18 08:25:53 51°14.37 2°43.67 17.914371 4.48261 34.262918 2.151469
2003-06-18 08:25:57 51°14.37 2°43.64 18.250057 4.482821 34.265337 2.151469
2003-06-18 08:26:03 51°14.37 2°43.6 18.150158 4.483032 34.265304 2.151469
2003-06-18 08:26:09 51°14.36 2°43.57 18.012654 4.483243 34.265271 2.185178
2003-06-18 08:26:13 51°14.36 2°43.54 18.076657 4.482293 34.257759 2.151469
2003-06-18 08:26:17 51°14.35 2°43.52 18.076657 4.482293 34.257759 2.151469
2003-06-18 08:26:23 51°14.35 2°43.48 18.483633 4.483559 34.268592 2.08405
2003-06-18 08:26:29 51°14.35 2°43.44 18.240721 4.483348 34.266787 1.982922
2003-06-18 08:26:33 51°14.34 2°43.41 17.99933 4.483348 34.266787 1.982922
2003-06-18 08:26:37 51°14.34 2°43.39 18.102108 4.481871 34.254147 1.982922
2003-06-18 08:26:43 51°14.33 2°43.35 18.001579 4.483032 34.26653 1.949212
2003-06-18 08:26:49 51°14.33 2°43.31 18.001579 4.483032 34.26653 1.949212
2003-06-18 08:26:53 51°14.33 2°43.29 18.245618 4.482293 34.257146 1.949212
2003-06-18 08:26:57 51°14.32 2°43.27 17.971258 4.481871 34.257823 1.982922
2003-06-18 08:27:03 51°14.32 2°43.23 17.967217 4.482926 34.26624 1.982922
2003-06-18 08:27:09 51°14.31 2°43.2 18.272376 4.483454 34.274433 1.915503
2003-06-18 08:27:13 51°14.31 2°43.18 17.795278 4.481555 34.259404 1.814375
2003-06-18 08:27:17 51°14.31 2°43.16 17.795278 4.481555 34.259404 1.814375
2003-06-18 08:27:23 51°14.31 2°43.13 18.166111 4.482188 34.265435 1.780665
2003-06-18 08:27:25 51°14.3 2°43.12 17.959968 4.480289 34.249181 1.746956
2003-06-18 08:27:33 51°14.3 2°43.08 18.40531 4.481133 34.254567 1.746956
2003-06-18 08:27:37 51°14.3 2°43.06 17.92692 4.479656 34.244376 1.679537
2003-06-18 08:27:43 51°14.29 2°43.03 18.226569 4.480816 34.254309 1.645828
2003-06-18 08:27:49 51°14.29 2°43 18.154437 4.481766 34.263049 1.578409
2003-06-18 08:27:53 51°14.29 2°42.98 18.154437 4.481766 34.263049 1.578409
2003-06-18 08:27:57 51°14.28 2°42.97 18.01815 4.480922 34.258277 1.443571
2003-06-18 08:28:03 51°14.28 2°42.94 18.084435 4.4805 34.255277 1.443571
2003-06-18 08:28:09 51°14.28 2°42.91 18.14862 4.481133 34.261309 1.443571
2003-06-18 08:28:13 51°14.27 2°42.9 18.144548 4.480817 34.259825 1.51099
2003-06-18 08:28:17 51°14.27 2°42.88 18.144548 4.480817 34.259825 1.51099
2003-06-18 08:28:23 51°14.27 2°42.86 17.974133 4.480289 34.257762 1.51099
2003-06-18 08:28:29 51°14.27 2°42.84 18.214532 4.480711 34.263827 1.477281
2003-06-18 08:28:33 51°14.26 2°42.82 18.212083 4.479762 34.256924 1.443571
2003-06-18 08:28:37 51°14.26 2°42.81 18.21449 4.478918 34.253989 1.477281
2003-06-18 08:28:43 51°14.26 2°42.79 18.086847 4.478918 34.254603 1.409862
2003-06-18 08:28:49 51°14.26 2°42.77 18.086847 4.478918 34.254603 1.409862
2003-06-18 08:28:53 51°14.25 2°42.75 18.329343 4.479762 34.263056 1.409862
2003-06-18 08:28:57 51°14.25 2°42.74 18.189454 4.478918 34.259509 1.409862
2003-06-18 08:29:03 51°14.25 2°42.72 18.185633 4.478601 34.257412 1.409862
2003-06-18 08:29:09 51°14.25 2°42.7 18.149285 4.480395 34.274613 1.308734
2003-06-18 08:29:13 51°14.24 2°42.69 18.112586 4.478601 34.258638 1.241315
2003-06-18 08:29:17 51°14.24 2°42.68 18.112586 4.478601 34.258638 1.241315
2003-06-18 08:29:23 51°14.24 2°42.66 18.484667 4.477968 34.249538 1.241315
2003-06-18 08:29:29 51°14.23 2°42.64 18.075908 4.47839 34.251925 1.241315
2003-06-18 08:29:33 51°14.23 2°42.63 18.04046 4.480078 34.263927 1.241315
2003-06-18 08:29:37 51°14.23 2°42.61 18.446489 4.479023 34.255506 1.241315
2003-06-18 08:29:43 51°14.23 2°42.6 18.144216 4.478074 34.249828 1.241315
2003-06-18 08:29:49 51°14.22 2°42.58 18.144216 4.478074 34.249828 1.241315
2003-06-18 08:29:53 51°14.22 2°42.57 17.91854 4.479445 34.260959 1.308734
2003-06-18 08:29:57 51°14.22 2°42.55 18.093376 4.477335 34.24657 1.342443
2003-06-18 08:30:03 51°14.22 2°42.54 18.220177 4.478918 34.261349 1.376153
2003-06-18 08:30:09 51°14.21 2°42.52 18.234372 4.477968 34.251377 1.443571
2003-06-18 08:30:13 51°14.21 2°42.51 18.116036 4.47723 34.248119 1.477281
2003-06-18 08:30:17 51°14.21 2°42.5 18.116036 4.47723 34.248119 1.477281
2003-06-18 08:30:23 51°14.21 2°42.48 18.392226 4.478074 34.255347 1.51099
2003-06-18 08:30:29 51°14.2 2°42.46 18.125389 4.477968 34.249538 1.578409
2003-06-18 08:30:33 51°14.2 2°42.45 18.036173 4.477757 34.24344 1.5447
2003-06-18 08:30:37 51°14.2 2°42.44 18.329509 4.478074 34.233282 1.578409
2003-06-18 08:30:43 51°14.2 2°42.42 18.006159 4.479128 34.2319 1.578409
2003-06-18 08:30:49 51°14.19 2°42.41 18.264827 4.480183 34.228685 1.612118
2003-06-18 08:30:53 51°14.19 2°42.39 18.264827 4.480183 34.228685 1.612118
2003-06-18 08:30:57 51°14.19 2°42.38 18.087387 4.47955 34.217153 1.612118
2003-06-18 08:31:03 51°14.19 2°42.37 17.991959 4.482926 34.236848 1.578409
2003-06-18 08:31:09 51°14.18 2°42.35 18.247028 4.482715 34.229539 1.5447
2003-06-18 08:31:13 51°14.18 2°42.34 18.051362 4.484192 34.23972 1.5447
2003-06-18 08:31:17 51°14.18 2°42.33 18.228728 4.48915 34.275381 1.51099
2003-06-18 08:31:23 51°14.18 2°42.31 18.228728 4.48915 34.275381 1.51099
2003-06-18 08:31:29 51°14.17 2°42.29 18.207848 4.488517 34.262015 1.443571
2003-06-18 08:31:33 51°14.17 2°42.28 18.324909 4.490732 34.27422 1.409862
2003-06-18 08:31:37 51°14.17 2°42.27 18.203821 4.490099 34.266364 1.376153
2003-06-18 08:31:43 51°14.17 2°42.26 18.126968 4.491365 34.26862 1.308734
2003-06-18 08:31:49 51°14.16 2°42.24 18.126968 4.491365 34.26862 1.308734
2003-06-18 08:31:53 51°14.16 2°42.23 18.33672 4.490943 34.257679 1.308734
2003-06-18 08:31:57 51°14.16 2°42.22 18.13952 4.491787 34.258166 1.376153
2003-06-18 08:32:03 51°14.16 2°42.2 18.458817 4.491576 34.25392 1.342443
2003-06-18 08:32:09 51°14.15 2°42.19 18.259268 4.493686 34.273161 1.409862
2003-06-18 08:32:13 51°14.15 2°42.17 18.472798 4.493369 34.272903 1.477281
2003-06-18 08:32:17 51°14.15 2°42.16 18.472798 4.493369 34.272903 1.477281
2003-06-18 08:32:23 51°14.15 2°42.15 18.576695 4.492842 34.273288 1.376153
2003-06-18 08:32:29 51°14.15 2°42.13 18.392599 4.493158 34.277826 1.342443
2003-06-18 08:32:33 51°14.14 2°42.12 18.187917 4.492209 34.269104 1.308734
2003-06-18 08:32:37 51°14.14 2°42.11 18.261549 4.492525 34.266306 1.308734
2003-06-18 08:32:43 51°14.14 2°42.09 18.116244 4.493791 34.273451 1.342443
2003-06-18 08:32:49 51°14.14 2°42.07 18.116244 4.493791 34.273451 1.342443
2003-06-18 08:32:53 51°14.14 2°42.06 18.322836 4.493369 34.263737 1.275024
2003-06-18 08:32:57 51°14.14 2°42.05 18.432048 4.493791 34.265507 1.342443
2003-06-18 08:33:03 51°14.14 2°42.04 18.23599 4.494213 34.266666 1.275024
2003-06-18 08:33:09 51°14.13 2°42.02 18.103231 4.493052 34.261034 1.342443
2003-06-18 08:33:13 51°14.13 2°42.01 18.143177 4.494107 34.270042 1.376153
2003-06-18 08:33:17 51°14.13 2°42 18.143177 4.494107 34.270042 1.376153
2003-06-18 08:33:23 51°14.13 2°41.98 18.486321 4.493896 34.269463 1.342443
2003-06-18 08:33:29 51°14.13 2°41.96 18.386802 4.49242 34.258684 1.308734
2003-06-18 08:33:33 51°14.12 2°41.95 18.150532 4.493474 34.263416 1.308734
2003-06-18 08:33:37 51°14.12 2°41.94 18.225034 4.494318 34.265735 1.308734
2003-06-18 08:33:43 51°14.12 2°41.92 18.258936 4.492947 34.252194 1.342443
2003-06-18 08:33:49 51°14.12 2°41.9 18.258936 4.492947 34.252194 1.342443
2003-06-18 08:33:53 51°14.11 2°41.89 18.457452 4.494107 34.259047 1.275024
2003-06-18 08:33:57 51°14.11 2°41.88 18.253874 4.493369 34.247861 1.308734
2003-06-18 08:34:03 51°14.11 2°41.86 18.421412 4.495479 34.262206 1.342443
2003-06-18 08:34:09 51°14.1 2°41.84 17.929921 4.496006 34.265486 1.308734
2003-06-18 08:34:13 51°14.1 2°41.82 18.57653 4.495373 34.256422 1.241315
2003-06-18 08:34:17 51°14.1 2°41.81 18.271173 4.49685 34.267805 1.241315
2003-06-18 08:34:23 51°14.09 2°41.79 18.271173 4.49685 34.267805 1.241315
2003-06-18 08:34:29 51°14.09 2°41.77 18.408828 4.49685 34.267194 1.275024
2003-06-18 08:34:33 51°14.08 2°41.75 18.273662 4.496534 34.266936 1.308734
2003-06-18 08:34:37 51°14.08 2°41.74 18.306421 4.496534 34.266936 1.241315
2003-06-18 08:34:43 51°14.08 2°41.72 18.340076 4.495901 34.269471 1.308734
2003-06-18 08:34:49 51°14.07 2°41.7 18.363029 4.495162 34.265 1.275024
2003-06-18 08:34:53 51°14.07 2°41.68 18.363029 4.495162 34.265 1.275024
2003-06-18 08:34:57 51°14.06 2°41.67 18.12489 4.495479 34.26648 1.275024
2003-06-18 08:35:03 51°14.06 2°41.65 18.386347 4.495584 34.269212 1.308734
2003-06-18 08:35:09 51°14.05 2°41.63 18.084601 4.493896 34.255415 1.308734
2003-06-18 08:35:13 51°14.05 2°41.61 18.346416 4.496112 34.274326 1.308734
2003-06-18 08:35:17 51°14.04 2°41.6 18.346416 4.496112 34.274326 1.308734
2003-06-18 08:35:23 51°14.04 2°41.58 18.162871 4.495057 34.266542 1.409862
2003-06-18 08:35:29 51°14.04 2°41.55 18.12435 4.495584 34.272877 1.443571
2003-06-18 08:35:33 51°14.03 2°41.54 18.493557 4.494951 34.27175 1.51099
2003-06-18 08:35:37 51°14.03 2°41.52 18.212498 4.494424 34.270912 1.5447
2003-06-18 08:35:43 51°14.03 2°41.5 18.210879 4.494529 34.273035 1.5447
2003-06-18 08:35:49 51°14.03 2°41.48 18.210879 4.494529 34.273035 1.5447
2003-06-18 08:35:53 51°14.03 2°41.46 18.346333 4.494741 34.280337 1.578409
2003-06-18 08:35:57 51°14.03 2°41.45 18.142304 4.493686 34.279275 1.51099
2003-06-18 08:36:03 51°14.03 2°41.42 18.372431 4.492314 34.270005 1.443571
2003-06-18 08:36:05 51°14.03 2°41.42 18.170515 4.493053 34.283041 1.51099
2003-06-18 08:36:13 51°14.02 2°41.38 18.031761 4.492314 34.282237 1.443571
2003-06-18 08:36:17 51°14.02 2°41.37 18.031761 4.492314 34.282237 1.443571
2003-06-18 08:36:23 51°14.02 2°41.35 18.131707 4.491998 34.284428 1.51099
2003-06-18 08:36:29 51°14.02 2°41.33 17.96026 4.49126 34.27934 1.5447
2003-06-18 08:36:33 51°14.02 2°41.31 18.060807 4.490416 34.274575 1.578409
2003-06-18 08:36:37 51°14.02 2°41.3 18.468207 4.490732 34.28034 1.5447
2003-06-18 08:36:43 51°14.02 2°41.28 18.270675 4.489466 34.271966 1.578409
2003-06-18 08:36:49 51°14.02 2°41.26 18.270675 4.489466 34.271966 1.578409
2003-06-18 08:36:53 51°14.02 2°41.25 18.104936 4.490521 34.282821 1.578409
2003-06-18 08:36:57 51°14.02 2°41.23 18.250763 4.489994 34.280148 1.5447
2003-06-18 08:37:03 51°14.02 2°41.22 18.482268 4.489255 34.273835 1.5447
2003-06-18 08:37:09 51°14.02 2°41.2 18.032386 4.488411 34.26968 1.5447
2003-06-18 08:37:13 51°14.03 2°41.19 18.332742 4.486829 34.256763 1.51099
2003-06-18 08:37:17 51°14.03 2°41.18 18.332742 4.486829 34.256763 1.51099
2003-06-18 08:37:23 51°14.03 2°41.17 18.058685 4.489572 34.277765 1.51099
2003-06-18 08:37:29 51°14.04 2°41.16 18.125846 4.489888 34.276798 1.342443
2003-06-18 08:37:33 51°14.04 2°41.15 18.018483 4.487567 34.253288 1.376153
2003-06-18 08:37:37 51°14.05 2°41.15 18.248356 4.488095 34.256573 1.376153
2003-06-18 08:37:43 51°14.05 2°41.14 18.215694 4.488095 34.260243 1.342443
2003-06-18 08:37:49 51°14.06 2°41.14 18.184013 4.490416 34.281919 1.376153
2003-06-18 08:37:53 51°14.06 2°41.13 18.184013 4.490416 34.281919 1.376153
2003-06-18 08:37:57 51°14.07 2°41.13 18.051862 4.486618 34.2519 1.275024
2003-06-18 08:38:03 51°14.07 2°41.13 18.186671 4.489888 34.279246 1.308734
2003-06-18 08:38:09 51°14.08 2°41.13 18.189163 4.489994 34.286271 1.342443
2003-06-18 08:38:13 51°14.08 2°41.13 18.08955 4.489888 34.289044 1.376153
2003-06-18 08:38:17 51°14.08 2°41.13 18.08955 4.489888 34.289044 1.376153
2003-06-18 08:38:23 51°14.09 2°41.13 18.084684 4.48915 34.285791 1.342443
2003-06-18 08:38:29 51°14.09 2°41.13 18.185093 4.48799 34.275254 1.342443
2003-06-18 08:38:33 51°14.1 2°41.13 18.114248 4.489783 34.289367 1.308734
2003-06-18 08:38:37 51°14.1 2°41.14 18.280796 4.49031 34.292652 1.275024
2003-06-18 08:38:43 51°14.1 2°41.14 18.006159 4.488834 34.280635 1.241315
2003-06-18 08:38:49 51°14.1 2°41.15 18.006159 4.488834 34.280635 1.241315
2003-06-18 08:38:53 51°14.11 2°41.15 18.41719 4.490099 34.291461 1.376153
2003-06-18 08:38:57 51°14.11 2°41.15 18.321551 4.489678 34.290915 1.409862
2003-06-18 08:39:03 51°14.11 2°41.16 18.394628 4.489361 34.288208 1.409862
2003-06-18 08:39:09 51°14.11 2°41.16 18.095497 4.489994 34.293622 1.409862
2003-06-18 08:39:13 51°14.11 2°41.16 18.100362 4.488939 34.288275 1.443571
2003-06-18 08:39:17 51°14.11 2°41.16 18.100362 4.488939 34.288275 1.443571
2003-06-18 08:39:23 51°14.11 2°41.17 18.306214 4.48915 34.293143 1.443571
2003-06-18 08:39:29 51°14.11 2°41.17 18.00516 4.489045 34.28979 1.409862
2003-06-18 08:39:33 51°14.11 2°41.17 18.31351 4.488834 34.287985 1.409862
2003-06-18 08:39:37 51°14.11 2°41.17 18.275487 4.48915 34.285791 1.376153
2003-06-18 08:39:43 51°14.11 2°41.17 18.101859 4.488939 34.281537 1.443571
2003-06-18 08:39:49 51°14.11 2°41.18 18.101859 4.488939 34.281537 1.443571
2003-06-18 08:39:53 51°14.11 2°41.18 18.343018 4.489783 34.283854 1.409862
2003-06-18 08:39:57 51°14.11 2°41.18 17.936757 4.489994 34.284434 1.376153
2003-06-18 08:40:03 51°14.11 2°41.18 18.134408 4.490099 34.280438 1.409862
2003-06-18 08:40:09 51°14.11 2°41.18 18.000371 4.490627 34.284335 1.376153
2003-06-18 08:40:13 51°14.11 2°41.18 18.004202 4.490099 34.278601 1.409862
2003-06-18 08:40:17 51°14.11 2°41.19 18.004202 4.490099 34.278601 1.409862
2003-06-18 08:40:23 51°14.11 2°41.19 18.10269 4.491471 34.290938 1.51099
2003-06-18 08:40:29 51°14.11 2°41.19 18.004577 4.490943 34.285204 1.5447
2003-06-18 08:40:33 51°14.11 2°41.19 18.115205 4.490099 34.277377 1.578409
2003-06-18 08:40:37 51°14.11 2°41.19 18.157678 4.491682 34.292742 1.578409
2003-06-18 08:40:43 51°14.11 2°41.19 18.090922 4.491471 34.29155 1.612118
2003-06-18 08:40:49 51°14.11 2°41.2 18.090922 4.491471 34.29155 1.612118
2003-06-18 08:40:53 51°14.11 2°41.2 18.063595 4.49031 34.279793 1.612118
2003-06-18 08:40:57 51°14.11 2°41.2 18.377774 4.490732 34.285237 1.578409
2003-06-18 08:41:03 51°14.11 2°41.2 18.212747 4.490627 34.282498 1.5447
2003-06-18 08:41:09 51°14.11 2°41.2 18.180982 4.491365 34.283914 1.51099
2003-06-18 08:41:13 51°14.11 2°41.2 18.009532 4.491682 34.282947 1.51099
2003-06-18 08:41:17 51°14.11 2°41.2 18.009532 4.491682 34.282947 1.51099
2003-06-18 08:41:23 51°14.11 2°41.2 18.237733 4.491576 34.277762 1.51099
2003-06-18 08:41:29 51°14.11 2°41.21 18.304846 4.491892 34.274349 1.477281
2003-06-18 08:41:33 51°14.11 2°41.21 18.063595 4.49242 34.27641 1.443571
2003-06-18 08:41:37 51°14.11 2°41.21 18.12356 4.492947 34.276024 1.477281
2003-06-18 08:41:43 51°14.11 2°41.21 18.111837 4.495057 34.291602 1.443571
2003-06-18 08:41:49 51°14.11 2°41.21 18.111837 4.495057 34.291602 1.443571
2003-06-18 08:41:53 51°14.11 2°41.21 18.371686 4.493897 34.279243 1.477281
2003-06-18 08:41:57 51°14.11 2°41.21 18.10215 4.494002 34.283813 1.51099
2003-06-18 08:42:03 51°14.11 2°41.21 18.410112 4.493053 34.278148 1.477281
2003-06-18 08:42:09 51°14.11 2°41.21 18.077863 4.493264 34.281786 1.5447
2003-06-18 08:42:13 51°14.11 2°41.21 18.146127 4.493369 34.285134 1.645828
2003-06-18 08:42:17 51°14.11 2°41.21 18.146127 4.493369 34.285134 1.645828
2003-06-18 08:42:23 51°14.11 2°41.21 18.149161 4.492947 34.287646 1.679537
2003-06-18 08:42:29 51°14.11 2°41.21 18.557696 4.492948 34.293767 1.679537
2003-06-18 08:42:33 51°14.11 2°41.21 18.18555 4.491471 34.287264 1.679537
2003-06-18 08:42:37 51°14.11 2°41.21 18.190824 4.491154 34.284559 1.645828
2003-06-18 08:42:43 51°14.11 2°41.21 18.295102 4.49126 34.284236 1.645828
2003-06-18 08:42:49 51°14.12 2°41.21 18.295102 4.49126 34.284236 1.645828
2003-06-18 08:42:53 51°14.12 2°41.21 18.093459 4.490943 34.280307 1.645828
2003-06-18 08:42:57 51°14.12 2°41.21 18.12701 4.491154 34.280887 1.645828
2003-06-18 08:43:03 51°14.12 2°41.21 18.191364 4.491682 34.284171 1.645828
2003-06-18 08:43:09 51°14.12 2°41.21 18.225158 4.490416 34.270904 1.679537
2003-06-18 08:43:13 51°14.12 2°41.21 18.395829 4.493053 34.290384 1.645828
2003-06-18 08:43:17 51°14.12 2°41.21 18.395829 4.493053 34.290384 1.645828
2003-06-18 08:43:23 51°14.12 2°41.21 18.227898 4.492525 34.28404 1.645828
2003-06-18 08:43:29 51°14.12 2°41.21 17.955676 4.49242 34.281915 1.645828
2003-06-18 08:43:33 51°14.12 2°41.21 18.295849 4.492947 34.285811 1.645828
2003-06-18 08:43:37 51°14.12 2°41.21 17.956843 4.492947 34.287035 1.645828
2003-06-18 08:43:43 51°14.12 2°41.21 18.332369 4.492103 34.279822 1.645828
2003-06-18 08:43:49 51°14.12 2°41.21 18.332369 4.492103 34.279822 1.645828
2003-06-18 08:43:53 51°14.12 2°41.21 18.22935 4.492103 34.280434 1.645828
2003-06-18 08:43:57 51°14.12 2°41.21 18.363526 4.492947 34.283363 1.578409
2003-06-18 08:44:03 51°14.12 2°41.21 17.990252 4.492842 34.284909 1.612118
2003-06-18 08:44:09 51°14.12 2°41.21 18.364437 4.492736 34.282784 1.612118
2003-06-18 08:44:13 51°14.12 2°41.21 18.16042 4.492525 34.280981 1.612118
2003-06-18 08:44:17 51°14.12 2°41.21 18.16042 4.492525 34.280981 1.612118
2003-06-18 08:44:23 51°14.12 2°41.21 18.022354 4.492103 34.276764 1.612118
2003-06-18 08:44:29 51°14.12 2°41.21 17.982838 4.491787 34.273448 1.612118
2003-06-18 08:44:33 51°14.12 2°41.21 18.289463 4.492631 34.281271 1.578409
2003-06-18 08:44:37 51°14.12 2°41.2 18.222211 4.49358 34.288772 1.612118
2003-06-18 08:44:43 51°14.12 2°41.2 18.090465 4.49358 34.29122 1.578409
2003-06-18 08:44:49 51°14.12 2°41.2 18.090465 4.49358 34.29122 1.578409
2003-06-18 08:44:53 51°14.12 2°41.2 18.197966 4.492631 34.280659 1.578409
2003-06-18 08:44:57 51°14.12 2°41.2 18.335352 4.492631 34.283718 1.612118
2003-06-18 08:45:03 51°14.12 2°41.2 18.23653 4.491998 34.278921 1.645828
2003-06-18 08:45:09 51°14.12 2°41.2 18.408539 4.492314 34.284073 1.612118
2003-06-18 08:45:13 51°14.12 2°41.2 18.205232 4.493264 34.291575 1.612118
2003-06-18 08:45:17 51°14.12 2°41.2 18.105601 4.493264 34.287903 1.578409
2003-06-18 08:45:23 51°14.13 2°41.2 18.105601 4.493264 34.287903 1.578409
2003-06-18 08:45:29 51°14.13 2°41.2 18.144257 4.491998 34.278309 1.578409
2003-06-18 08:45:33 51°14.13 2°41.2 17.973841 4.493475 34.284812 1.5447
2003-06-18 08:45:37 51°14.13 2°41.19 18.206727 4.493264 34.285456 1.5447
2003-06-18 08:45:43 51°14.13 2°41.19 18.029597 4.492314 34.273674 1.578409
2003-06-18 08:45:49 51°14.13 2°41.19 18.233459 4.493264 34.280562 1.578409
2003-06-18 08:45:53 51°14.13 2°41.19 18.233459 4.493264 34.280562 1.578409
2003-06-18 08:45:57 51°14.13 2°41.19 18.479043 4.493264 34.277505 1.578409
2003-06-18 08:46:03 51°14.13 2°41.19 18.352714 4.493791 34.282011 1.5447
2003-06-18 08:46:09 51°14.13 2°41.19 18.185882 4.493686 34.278663 1.612118
2003-06-18 08:46:13 51°14.13 2°41.19 18.287721 4.493369 34.277794 1.612118
2003-06-18 08:46:17 51°14.13 2°41.19 18.051487 4.494108 34.284714 1.645828
2003-06-18 08:46:23 51°14.13 2°41.19 18.051487 4.494108 34.284714 1.645828
2003-06-18 08:46:29 51°14.13 2°41.18 18.256322 4.494319 34.288352 1.612118
2003-06-18 08:46:33 51°14.13 2°41.18 18.362159 4.492947 34.277247 1.612118
2003-06-18 08:46:37 51°14.13 2°41.18 18.123311 4.493686 34.279886 1.578409
2003-06-18 08:46:43 51°14.13 2°41.18 18.014986 4.494213 34.280112 1.645828
2003-06-18 08:46:49 51°14.13 2°41.18 18.014986 4.494213 34.280112 1.645828
2003-06-18 08:46:53 51°14.13 2°41.18 18.283201 4.494635 34.278825 1.612118
2003-06-18 08:46:57 51°14.13 2°41.18 18.144382 4.494319 34.276122 1.645828
2003-06-18 08:47:03 51°14.13 2°41.18 18.419508 4.493791 34.271006 1.612118
2003-06-18 08:47:09 51°14.13 2°41.18 18.350766 4.495057 34.279373 1.612118
2003-06-18 08:47:13 51°14.13 2°41.18 18.453274 4.495057 34.277539 1.612118
2003-06-18 08:47:17 51°14.13 2°41.18 18.453274 4.495057 34.277539 1.612118
2003-06-18 08:47:23 51°14.13 2°41.17 18.315168 4.495057 34.277539 1.645828
2003-06-18 08:47:29 51°14.13 2°41.17 18.318774 4.495479 34.286644 1.645828
2003-06-18 08:47:33 51°14.13 2°41.17 18.079152 4.495268 34.284231 1.645828
2003-06-18 08:47:37 51°14.13 2°41.17 18.354536 4.495057 34.281206 1.679537
2003-06-18 08:47:43 51°14.14 2°41.17 17.986712 4.493791 34.272229 1.645828
2003-06-18 08:47:49 51°14.14 2°41.17 17.986712 4.493791 34.272229 1.645828
2003-06-18 08:47:53 51°14.14 2°41.17 18.164034 4.494319 34.277956 1.679537
2003-06-18 08:47:57 51°14.14 2°41.17 18.277809 4.494213 34.278278 1.679537
2003-06-18 08:48:03 51°14.14 2°41.17 18.210256 4.49453 34.280981 1.679537
2003-06-18 08:48:09 51°14.14 2°41.17 18.168479 4.49453 34.278535 1.746956
2003-06-18 08:48:13 51°14.14 2°41.17 18.201786 4.495163 34.282719 1.679537
2003-06-18 08:48:17 51°14.14 2°41.16 18.201786 4.495163 34.282719 1.679537
2003-06-18 08:48:23 51°14.14 2°41.16 18.201786 4.494951 34.279083 1.679537
2003-06-18 08:48:29 51°14.14 2°41.16 18.072539 4.493052 34.261034 1.645828
2003-06-18 08:48:33 51°14.14 2°41.16 18.075367 4.495584 34.275321 1.679537
2003-06-18 08:48:37 51°14.14 2°41.16 18.442269 4.496428 34.274584 1.746956
2003-06-18 08:48:43 51°14.14 2°41.16 18.299539 4.496428 34.278249 1.780665
2003-06-18 08:48:49 51°14.14 2°41.16 18.195392 4.49569 34.272556 1.814375
2003-06-18 08:48:53 51°14.14 2°41.16 18.195392 4.49569 34.272556 1.814375
2003-06-18 08:48:57 51°14.14 2°41.16 18.26968 4.495479 34.270144 1.814375
2003-06-18 08:49:03 51°14.14 2°41.16 18.141598 4.496534 34.278539 1.814375
2003-06-18 08:49:09 51°14.15 2°41.16 18.279676 4.495901 34.271303 1.780665
2003-06-18 08:49:13 51°14.15 2°41.16 18.219057 4.495268 34.268954 1.814375
2003-06-18 08:49:17 51°14.15 2°41.15 18.291868 4.496956 34.282753 1.814375
2003-06-18 08:49:23 51°14.15 2°41.15 18.291868 4.496956 34.282753 1.814375
2003-06-18 08:49:29 51°14.15 2°41.15 18.124599 4.495901 34.279856 1.814375
2003-06-18 08:49:33 51°14.15 2°41.15 18.334814 4.495373 34.272909 1.814375
2003-06-18 08:49:37 51°14.15 2°41.15 18.474742 4.496323 34.276738 1.814375
2003-06-18 08:49:43 51°14.15 2°41.15 18.066382 4.495057 34.26532 1.848084
2003-06-18 08:49:49 51°14.15 2°41.15 18.024935 4.496639 34.272721 1.881794
2003-06-18 08:49:53 51°14.15 2°41.15 18.024935 4.496639 34.272721 1.881794
2003-06-18 08:49:57 51°14.15 2°41.15 18.171678 4.496112 34.263945 1.881794
2003-06-18 08:50:03 51°14.15 2°41.15 18.364893 4.49685 34.267194 1.848084
2003-06-18 08:50:09 51°14.15 2°41.15 18.398437 4.496639 34.262342 1.881794
2003-06-18 08:50:13 51°14.15 2°41.15 18.268436 4.497799 34.269802 1.881794
2003-06-18 08:50:17 51°14.15 2°41.15 18.268436 4.497799 34.269802 1.881794
2003-06-18 08:50:23 51°14.15 2°41.15 18.337549 4.498327 34.27003 1.915503
2003-06-18 08:50:29 51°14.16 2°41.14 18.163785 4.499276 34.279962 1.881794
2003-06-18 08:50:33 51°14.16 2°41.14 18.40266 4.498432 34.274593 1.915503
2003-06-18 08:50:37 51°14.16 2°41.14 18.340366 4.498116 34.272503 1.949212
2003-06-18 08:50:43 51°14.16 2°41.14 17.964218 4.49801 34.270382 1.915503
2003-06-18 08:50:49 51°14.16 2°41.14 17.964218 4.49801 34.270382 1.915503
2003-06-18 08:50:53 51°14.16 2°41.14 18.376118 4.498854 34.274531 1.915503
2003-06-18 08:50:57 51°14.16 2°41.14 18.040876 4.498854 34.275141 1.915503
2003-06-18 08:51:03 51°14.16 2°41.14 18.30725 4.498221 34.26852 1.982922
2003-06-18 08:51:09 51°14.16 2°41.14 18.473294 4.500331 34.286521 1.915503
2003-06-18 08:51:13 51°14.16 2°41.14 18.264827 4.498432 34.2691 1.881794
2003-06-18 08:51:17 51°14.16 2°41.14 18.264827 4.498432 34.2691 1.881794
2003-06-18 08:51:23 51°14.16 2°41.14 18.473005 4.498643 34.270289 1.982922
2003-06-18 08:51:29 51°14.16 2°41.14 18.067963 4.49896 34.269328 1.915503
2003-06-18 08:51:33 51°14.16 2°41.14 18.238937 4.500437 34.281927 1.949212
2003-06-18 08:51:37 51°14.16 2°41.14 18.441027 4.499698 34.275017 2.016631
2003-06-18 08:51:43 51°14.16 2°41.13 18.269555 4.499593 34.275338 1.949212
2003-06-18 08:51:49 51°14.16 2°41.13 18.269555 4.499593 34.275338 1.949212
2003-06-18 08:51:53 51°14.16 2°41.13 18.09795 4.499804 34.279579 1.982922
2003-06-18 08:51:57 51°14.16 2°41.13 18.066756 4.499065 34.273279 1.982922
2003-06-18 08:52:03 51°14.17 2°41.13 18.544352 4.497799 34.26431 1.949212
2003-06-18 08:52:09 51°14.17 2°41.13 18.295849 4.498643 34.2709 1.982922
2003-06-18 08:52:13 51°14.17 2°41.13 18.348115 4.498749 34.271189 1.982922
2003-06-18 08:52:17 51°14.17 2°41.13 18.255161 4.499065 34.272059 1.949212
2003-06-18 08:52:23 51°14.17 2°41.13 18.255161 4.499065 34.272059 1.949212
2003-06-18 08:52:29 51°14.17 2°41.13 18.259724 4.498749 34.271189 1.982922
2003-06-18 08:52:33 51°14.17 2°41.13 18.297134 4.499909 34.280479 2.016631
2003-06-18 08:52:37 51°14.17 2°41.12 18.060391 4.49801 34.263669 1.982922
2003-06-18 08:52:43 51°14.17 2°41.12 18.502198 4.498538 34.273051 2.050341
2003-06-18 08:52:49 51°14.17 2°41.12 18.502198 4.498538 34.273051 2.050341
2003-06-18 08:52:53 51°14.17 2°41.12 18.335808 4.496744 34.261412 2.050341
2003-06-18 08:52:57 51°14.17 2°41.12 18.304846 4.498221 34.276455 2.016631
2003-06-18 08:53:03 51°14.17 2°41.12 18.505587 4.497588 34.266782 1.982922
2003-06-18 08:53:09 51°14.17 2°41.12 18.467462 4.49801 34.270992 1.949212
2003-06-18 08:53:13 51°14.17 2°41.12 18.258272 4.496428 34.256881 1.915503
2003-06-18 08:53:17 51°14.17 2°41.12 18.258272 4.496428 34.256881 1.915503
2003-06-18 08:53:23 51°14.17 2°41.11 18.422157 4.497377 34.264371 1.949212
2003-06-18 08:53:29 51°14.17 2°41.11 18.21777 4.497588 34.266171 1.915503
2003-06-18 08:53:33 51°14.17 2°41.11 18.08169 4.499171 34.27662 1.949212
2003-06-18 08:53:37 51°14.17 2°41.11 18.281708 4.497694 34.26402 1.982922
2003-06-18 08:53:43 51°14.17 2°41.11 18.206063 4.498221 34.26852 1.982922
2003-06-18 08:53:49 51°14.17 2°41.11 18.206063 4.498221 34.26852 1.982922
2003-06-18 08:53:53 51°14.17 2°41.11 18.233251 4.498221 34.272792 1.949212
2003-06-18 08:53:57 51°14.17 2°41.11 18.297507 4.497483 34.268323 1.949212
2003-06-18 08:54:03 51°14.17 2°41.1 18.299207 4.497166 34.268064 2.016631
2003-06-18 08:54:09 51°14.17 2°41.1 18.236156 4.497377 34.271085 2.016631
2003-06-18 08:54:13 51°14.17 2°41.1 18.477761 4.496428 34.266035 2.016631
2003-06-18 08:54:17 51°14.17 2°41.1 18.477761 4.496428 34.266035 2.016631
2003-06-18 08:54:23 51°14.17 2°41.1 18.306504 4.496323 34.271241 1.982922
2003-06-18 08:54:29 51°14.17 2°41.1 18.169809 4.496956 34.279698 2.050341
2003-06-18 08:54:33 51°14.17 2°41.1 18.274035 4.495373 34.268022 2.016631
2003-06-18 08:54:37 51°14.17 2°41.1 18.409656 4.494846 34.264741 2.016631
2003-06-18 08:54:43 51°14.17 2°41.09 18.269016 4.495795 34.274678 2.016631
2003-06-18 08:54:49 51°14.17 2°41.09 18.269016 4.495795 34.274678 2.016631
2003-06-18 08:54:53 51°14.17 2°41.09 18.639314 4.494846 34.265962 2.050341
2003-06-18 08:54:57 51°14.17 2°41.09 18.263997 4.495268 34.268954 2.050341
2003-06-18 08:55:03 51°14.17 2°41.09 18.332576 4.49474 34.265672 2.016631
2003-06-18 08:55:09 51°14.17 2°41.09 18.369242 4.495584 34.267991 2.050341
2003-06-18 08:55:13 51°14.17 2°41.09 18.201786 4.494635 34.261108 2.050341
2003-06-18 08:55:17 51°14.17 2°41.08 18.201786 4.494635 34.261108 2.050341
2003-06-18 08:55:23 51°14.17 2°41.08 18.235119 4.49685 34.279408 2.050341
2003-06-18 08:55:29 51°14.17 2°41.08 18.404482 4.494318 34.262681 2.050341
2003-06-18 08:55:33 51°14.17 2°41.08 18.03147 4.495268 34.270786 2.117759
2003-06-18 08:55:37 51°14.17 2°41.08 18.136195 4.495479 34.273809 2.08405
2003-06-18 08:55:43 51°14.17 2°41.08 18.409449 4.495479 34.27442 2.117759
2003-06-18 08:55:49 51°14.17 2°41.08 18.412223 4.49474 34.267505 2.08405
2003-06-18 08:55:53 51°14.17 2°41.07 18.412223 4.49474 34.267505 2.08405
2003-06-18 08:55:57 51°14.17 2°41.07 18.480738 4.49569 34.271945 2.117759
2003-06-18 08:56:03 51°14.17 2°41.07 18.312142 4.495479 34.272587 2.151469
2003-06-18 08:56:09 51°14.18 2°41.07 18.246904 4.495795 34.272235 2.08405
2003-06-18 08:56:13 51°14.18 2°41.07 18.28768 4.496217 34.27767 2.08405
2003-06-18 08:56:17 51°14.18 2°41.07 18.427868 4.495479 34.267701 2.08405
2003-06-18 08:56:23 51°14.18 2°41.07 18.427868 4.495479 34.267701 2.08405
2003-06-18 08:56:29 51°14.18 2°41.06 18.395001 4.495057 34.262878 2.117759
2003-06-18 08:56:33 51°14.18 2°41.06 18.225532 4.495584 34.269212 2.08405
2003-06-18 08:56:37 51°14.18 2°41.06 18.327934 4.496323 34.270019 2.08405
2003-06-18 08:56:43 51°14.18 2°41.06 18.295227 4.495901 34.266418 2.016631
2003-06-18 08:56:49 51°14.18 2°41.06 18.464898 4.496217 34.264235 2.050341
2003-06-18 08:56:53 51°14.18 2°41.06 18.464898 4.496217 34.264235 2.050341
2003-06-18 08:56:57 51°14.18 2°41.06 18.528692 4.496534 34.266936 2.050341
2003-06-18 08:57:03 51°14.18 2°41.05 18.390032 4.497061 34.267774 2.016631
2003-06-18 08:57:09 51°14.18 2°41.05 18.324618 4.49685 34.262922 2.016631
2003-06-18 08:57:13 51°14.18 2°41.05 18.159548 4.496111 34.260283 2.050341
2003-06-18 08:57:17 51°14.18 2°41.05 18.161916 4.496744 34.261412 2.050341
2003-06-18 08:57:23 51°14.18 2°41.05 18.161916 4.496744 34.261412 2.050341
2003-06-18 08:57:29 51°14.18 2°41.05 18.129545 4.49801 34.272213 2.050341
2003-06-18 08:57:33 51°14.18 2°41.05 18.164408 4.497061 34.263502 2.016631
2003-06-18 08:57:37 51°14.18 2°41.04 18.370029 4.49801 34.272213 1.982922
2003-06-18 08:57:43 51°14.18 2°41.04 18.201786 4.497588 34.268613 1.982922
2003-06-18 08:57:49 51°14.18 2°41.04 18.201786 4.497588 34.268613 1.982922
2003-06-18 08:57:53 51°14.18 2°41.04 17.889435 4.496744 34.263242 2.016631
2003-06-18 08:57:57 51°14.18 2°41.04 18.329882 4.497799 34.269802 2.016631
2003-06-18 08:58:03 51°14.18 2°41.04 17.991959 4.497799 34.267971 1.982922
2003-06-18 08:58:09 51°14.19 2°41.04 18.165655 4.497905 34.267041 1.915503
2003-06-18 08:58:13 51°14.19 2°41.03 18.540138 4.498116 34.269451 1.982922
2003-06-18 08:58:17 51°14.19 2°41.03 18.540138 4.498116 34.269451 1.982922
2003-06-18 08:58:23 51°14.19 2°41.03 18.057479 4.49896 34.276041 1.881794
2003-06-18 08:58:29 51°14.19 2°41.03 18.246157 4.496428 34.255051 1.915503
2003-06-18 08:58:33 51°14.19 2°41.03 18.310484 4.497799 34.267971 1.949212
2003-06-18 08:58:37 51°14.19 2°41.03 18.247817 4.497166 34.265622 1.881794
2003-06-18 08:58:43 51°14.19 2°41.03 18.315292 4.497905 34.26643 1.848084
2003-06-18 08:58:49 51°14.19 2°41.02 18.315292 4.497905 34.26643 1.848084
2003-06-18 08:58:53 51°14.19 2°41.02 18.146626 4.498643 34.276393 1.848084
2003-06-18 08:58:57 51°14.19 2°41.02 18.218392 4.497694 34.267682 1.814375
2003-06-18 08:59:03 51°14.2 2°41.02 18.42493 4.49801 34.271603 1.881794
2003-06-18 08:59:09 51°14.2 2°41.02 18.158675 4.496745 34.268126 1.814375
2003-06-18 08:59:13 51°14.2 2°41.02 18.160628 4.496745 34.268736 1.780665
2003-06-18 08:59:17 51°14.2 2°41.02 18.160628 4.496745 34.268736 1.780665
2003-06-18 08:59:23 51°14.2 2°41.01 18.295185 4.49685 34.271468 1.780665
2003-06-18 08:59:29 51°14.2 2°41.01 18.298709 4.496428 34.267256 1.746956
2003-06-18 08:59:33 51°14.2 2°41.01 18.190658 4.495373 34.257643 1.780665
2003-06-18 08:59:37 51°14.2 2°41.01 18.188955 4.496955 34.268095 1.780665
2003-06-18 08:59:43 51°14.2 2°41.01 18.461754 4.497483 34.269544 1.780665
2003-06-18 08:59:49 51°14.21 2°41.01 18.367171 4.4959 34.254821 1.746956
2003-06-18 08:59:53 51°14.21 2°41.01 18.367171 4.4959 34.254821 1.746956
2003-06-18 08:59:57 51°14.21 2°41 18.506786 4.497905 34.270092 1.746956
2003-06-18 09:00:03 51°14.21 2°41 18.129545 4.497905 34.268261 1.780665
2003-06-18 09:00:09 51°14.21 2°41 18.154313 4.497272 34.262861 1.746956
2003-06-18 09:00:13 51°14.21 2°41 18.046827 4.497694 34.273175 1.814375
2003-06-18 09:00:17 51°14.21 2°41 18.364851 4.496217 34.259352 1.746956
2003-06-18 09:00:23 51°14.21 2°41 18.364851 4.496217 34.259352 1.746956
2003-06-18 09:00:29 51°14.22 2°41 18.502942 4.498327 34.273693 1.746956
2003-06-18 09:00:33 51°14.22 2°40.99 18.134824 4.497905 34.267041 1.780665
2003-06-18 09:00:37 51°14.22 2°40.99 18.30725 4.495689 34.249361 1.780665
2003-06-18 09:00:43 51°14.22 2°40.99 18.338792 4.496111 34.256011 1.814375
2003-06-18 09:00:49 51°14.22 2°40.99 18.265905 4.495478 34.253051 1.814375
2003-06-18 09:00:53 51°14.22 2°40.99 18.265905 4.495478 34.253051 1.814375
2003-06-18 09:00:57 51°14.22 2°40.99 18.397775 4.495373 34.247881 1.848084
2003-06-18 09:01:03 51°14.23 2°40.99 18.060391 4.494529 34.237632 1.949212
2003-06-18 09:01:09 51°14.23 2°40.99 18.026017 4.496217 34.252031 1.949212
2003-06-18 09:01:13 51°14.23 2°40.98 18.435152 4.496744 34.252871 1.915503
2003-06-18 09:01:17 51°14.23 2°40.98 18.435152 4.496744 34.252871 1.915503
2003-06-18 09:01:23 51°14.23 2°40.98 18.199087 4.496428 34.250781 2.016631
2003-06-18 09:01:29 51°14.23 2°40.98 18.269431 4.496639 34.253801 1.982922
2003-06-18 09:01:33 51°14.23 2°40.98 18.199378 4.490203 34.201349 1.982922
2003-06-18 09:01:37 51°14.23 2°40.98 18.05802 4.497377 34.262541 2.016631
2003-06-18 09:01:43 51°14.24 2°40.98 18.192568 4.49685 34.25682 2.050341
2003-06-18 09:01:49 51°14.24 2°40.98 18.192568 4.49685 34.25682 2.050341
2003-06-18 09:01:53 51°14.24 2°40.98 18.259392 4.494845 34.239722 2.016631
2003-06-18 09:01:57 51°14.24 2°40.98 18.327022 4.498221 34.26852 2.050341
2003-06-18 09:02:03 51°14.24 2°40.97 18.226486 4.497377 34.26132 2.050341
2003-06-18 09:02:09 51°14.24 2°40.97 18.335228 4.496639 34.254411 2.050341
2003-06-18 09:02:13 51°14.25 2°40.97 18.406966 4.497166 34.261351 2.016631
2003-06-18 09:02:17 51°14.25 2°40.97 18.406966 4.497166 34.261351 2.016631
2003-06-18 09:02:23 51°14.25 2°40.97 18.271629 4.497272 34.264081 2.050341
2003-06-18 09:02:29 51°14.25 2°40.97 18.263333 4.496533 34.260222 2.050341
2003-06-18 09:02:33 51°14.25 2°40.97 18.539436 4.49685 34.262922 2.08405
2003-06-18 09:02:37 51°14.25 2°40.97 18.10427 4.496428 34.259322 2.117759
2003-06-18 09:02:43 51°14.25 2°40.97 18.377194 4.499593 34.280831 2.117759
2003-06-18 09:02:49 51°14.26 2°40.96 18.377194 4.499593 34.280831 2.117759
2003-06-18 09:02:53 51°14.26 2°40.96 18.134159 4.49379 34.230723 2.151469
2003-06-18 09:02:57 51°14.26 2°40.96 18.167524 4.497483 34.26039 2.151469
2003-06-18 09:03:03 51°14.26 2°40.96 18.206436 4.497377 34.25888 2.218888
2003-06-18 09:03:09 51°14.26 2°40.96 18.240721 4.498432 34.27032 2.117759
2003-06-18 09:03:13 51°14.26 2°40.96 18.311769 4.498538 34.266949 2.151469
2003-06-18 09:03:17 51°14.26 2°40.96 18.20818 4.497061 34.251911 2.117759
2003-06-18 09:03:23 51°14.26 2°40.96 18.20818 4.497061 34.251911 2.117759
2003-06-18 09:03:29 51°14.27 2°40.96 17.934006 4.497483 34.25795 2.151469
2003-06-18 09:03:33 51°14.27 2°40.96 18.444544 4.497905 34.260329 2.117759
2003-06-18 09:03:37 51°14.27 2°40.96 18.200416 4.496217 34.247762 2.117759
2003-06-18 09:03:43 51°14.27 2°40.96 18.200001 4.497377 34.25644 2.08405
2003-06-18 09:03:49 51°14.27 2°40.95 18.26968 4.498116 34.260299 2.08405
2003-06-18 09:03:53 51°14.27 2°40.95 18.26968 4.498116 34.260299 2.08405
2003-06-18 09:03:57 51°14.27 2°40.95 18.404647 4.498854 34.264768 2.185178
2003-06-18 09:04:03 51°14.27 2°40.95 18.245452 4.498538 34.264508 2.117759
2003-06-18 09:04:09 51°14.28 2°40.95 18.388748 4.498643 34.262968 2.151469
2003-06-18 09:04:13 51°14.28 2°40.95 18.252962 4.494423 34.231246 2.185178
2003-06-18 09:04:17 51°14.28 2°40.95 18.252962 4.494423 34.231246 2.185178
2003-06-18 09:04:23 51°14.28 2°40.95 18.286311 4.49685 34.253771 2.151469
2003-06-18 09:04:29 51°14.28 2°40.95 18.45919 4.497061 34.25801 2.117759
2003-06-18 09:04:33 51°14.28 2°40.95 18.362035 4.497377 34.25827 2.151469
2003-06-18 09:04:37 51°14.28 2°40.95 18.428241 4.497166 34.253421 2.117759
2003-06-18 09:04:43 51°14.29 2°40.95 17.942758 4.498538 34.2578 2.117759
2003-06-18 09:04:49 51°14.29 2°40.95 17.942758 4.498538 34.2578 2.117759
2003-06-18 09:04:53 51°14.3 2°40.95 18.177659 4.498643 34.258089 2.117759
2003-06-18 09:04:57 51°14.3 2°40.95 18.290292 4.490731 34.192453 2.08405
2003-06-18 09:05:03 51°14.31 2°40.94 18.254995 4.496111 34.231625 2.151469
2003-06-18 09:05:09 51°14.32 2°40.94 18.288841 4.494001 34.21242 2.151469
2003-06-18 09:05:13 51°14.32 2°40.94 18.42224 4.498959 34.255911 2.185178
2003-06-18 09:05:17 51°14.33 2°40.93 18.42224 4.498959 34.255911 2.185178
2003-06-18 09:05:23 51°14.34 2°40.92 18.320101 4.498432 34.2569 2.151469
2003-06-18 09:05:29 51°14.35 2°40.91 18.389369 4.50012 34.268245 2.151469
2003-06-18 09:05:33 51°14.36 2°40.9 18.32437 4.499592 34.260088 2.08405
2003-06-18 09:05:37 51°14.37 2°40.9 18.561786 4.499276 34.261658 2.08405
2003-06-18 09:05:43 51°14.38 2°40.89 18.145836 4.498854 34.258059 2.151469
2003-06-18 09:05:49 51°14.39 2°40.88 18.145836 4.498854 34.258059 2.151469
2003-06-18 09:05:53 51°14.4 2°40.87 18.085973 4.498854 34.25745 2.117759
2003-06-18 09:05:57 51°14.41 2°40.86 18.177451 4.498221 34.253272 2.016631
2003-06-18 09:06:03 51°14.43 2°40.85 18.212581 4.497905 34.249963 1.949212
2003-06-18 09:06:09 51°14.45 2°40.83 18.556746 4.501069 34.272682 1.881794
2003-06-18 09:06:13 51°14.46 2°40.83 18.382827 4.499803 34.264326 1.881794
2003-06-18 09:06:17 51°14.47 2°40.82 18.382827 4.499803 34.264326 1.881794
2003-06-18 09:06:23 51°14.49 2°40.81 18.580866 4.497483 34.247584 1.814375
2003-06-18 09:06:29 51°14.51 2°40.8 18.267357 4.497377 34.25888 1.848084
2003-06-18 09:06:33 51°14.53 2°40.79 18.155601 4.497694 34.266461 1.848084
2003-06-18 09:06:37 51°14.54 2°40.79 18.043622 4.497905 34.272534 1.848084
2003-06-18 09:06:43 51°14.56 2°40.77 18.410857 4.498221 34.276455 1.949212
2003-06-18 09:06:49 51°14.58 2°40.76 18.410857 4.498221 34.276455 1.949212
2003-06-18 09:06:53 51°14.59 2°40.76 18.365307 4.497377 34.273527 2.016631
2003-06-18 09:06:57 51°14.61 2°40.75 18.323665 4.496956 34.272979 2.050341
2003-06-18 09:07:03 51°14.63 2°40.74 18.350601 4.491997 34.234936 2.050341
2003-06-18 09:07:09 51°14.65 2°40.73 18.24263 4.496639 34.280051 1.949212
2003-06-18 09:07:13 51°14.66 2°40.72 17.867159 4.495057 34.275094 1.915503
2003-06-18 09:07:17 51°14.68 2°40.72 18.235741 4.494846 34.275126 1.949212
2003-06-18 09:07:23 51°14.7 2°40.71 18.235741 4.494846 34.275126 1.949212
2003-06-18 09:07:29 51°14.72 2°40.7 18.23018 4.493264 34.269557 1.915503
2003-06-18 09:07:33 51°14.74 2°40.69 18.33701 4.493369 34.280852 1.814375
2003-06-18 09:07:37 51°14.75 2°40.69 18.56699 4.494319 34.295082 1.814375
2003-06-18 09:07:43 51°14.77 2°40.68 18.122646 4.492631 34.288614 1.848084
2003-06-18 09:07:49 51°14.79 2°40.67 18.095871 4.492631 34.291062 1.814375
2003-06-18 09:07:53 51°14.81 2°40.66 18.095871 4.492631 34.291062 1.814375
2003-06-18 09:07:57 51°14.82 2°40.66 18.020273 4.487989 34.255672 1.848084
2003-06-18 09:08:03 51°14.84 2°40.65 18.096245 4.491471 34.290326 1.814375
2003-06-18 09:08:09 51°14.86 2°40.64 18.278805 4.486618 34.248842 1.780665
2003-06-18 09:08:13 51°14.88 2°40.63 18.277934 4.490521 34.280984 1.746956
2003-06-18 09:08:17 51°14.89 2°40.63 18.173007 4.488306 34.270614 1.746956
2003-06-18 09:08:23 51°14.92 2°40.62 18.173007 4.488306 34.270614 1.746956
2003-06-18 09:08:29 51°14.94 2°40.61 18.13179 4.491049 34.301419 1.679537
2003-06-18 09:08:33 51°14.95 2°40.6 18.189786 4.489678 34.299495 1.679537
2003-06-18 09:08:37 51°14.97 2°40.6 17.840995 4.488728 34.303021 1.679537
2003-06-18 09:08:43 51°14.99 2°40.59 17.961884 4.488517 34.302442 1.713247
2003-06-18 09:08:49 51°15.01 2°40.58 17.961884 4.488517 34.302442 1.713247
2003-06-18 09:08:53 51°15.02 2°40.57 17.936298 4.488096 34.305578 1.679537
2003-06-18 09:08:57 51°15.04 2°40.57 17.98313 4.486408 34.292971 1.713247
2003-06-18 09:09:03 51°15.06 2°40.56 17.895273 4.483243 34.27324 1.679537
2003-06-18 09:09:09 51°15.08 2°40.55 17.986254 4.486513 34.307373 1.645828
2003-06-18 09:09:13 51°15.1 2°40.54 17.740211 4.485142 34.300541 1.612118
2003-06-18 09:09:17 51°15.11 2°40.54 17.740211 4.485142 34.300541 1.612118
2003-06-18 09:09:23 51°15.13 2°40.53 18.079943 4.485142 34.310365 1.645828
2003-06-18 09:09:29 51°15.15 2°40.52 18.150864 4.483771 34.314591 1.612118
2003-06-18 09:09:33 51°15.17 2°40.52 18.153025 4.483033 34.323019 1.578409
2003-06-18 09:09:37 51°15.18 2°40.51 18.327022 4.480712 34.318499 1.578409
2003-06-18 09:09:43 51°15.21 2°40.51 18.094748 4.47913 34.31662 1.5447
2003-06-18 09:09:49 51°15.23 2°40.51 18.094748 4.47913 34.31662 1.5447
2003-06-18 09:09:53 51°15.24 2°40.5 18.167441 4.473539 34.279113 1.5447
2003-06-18 09:09:57 51°15.26 2°40.5 17.830268 4.478286 34.324774 1.578409
2003-06-18 09:10:03 51°15.28 2°40.5 17.732353 4.473539 34.285881 1.645828
2003-06-18 09:10:09 51°15.3 2°40.51 17.941341 4.476176 34.311593 1.679537
2003-06-18 09:10:13 51°15.32 2°40.51 17.843541 4.471956 34.273532 1.679537
2003-06-18 09:10:17 51°15.33 2°40.51 17.843541 4.471956 34.273532 1.679537
2003-06-18 09:10:23 51°15.35 2°40.51 18.189537 4.470479 34.260859 1.679537
2003-06-18 09:10:29 51°15.37 2°40.52 18.021896 4.471218 34.261046 1.746956
2003-06-18 09:10:33 51°15.39 2°40.52 17.685393 4.472378 34.266698 1.746956
2003-06-18 09:10:37 51°15.4 2°40.52 18.063803 4.476598 34.301054 1.780665
2003-06-18 09:10:43 51°15.42 2°40.53 17.965342 4.474172 34.279008 1.780665
2003-06-18 09:10:49 51°15.45 2°40.54 18.174585 4.472589 34.26236 1.780665
2003-06-18 09:10:53 51°15.46 2°40.54 18.174585 4.472589 34.26236 1.780665
2003-06-18 09:10:57 51°15.47 2°40.55 18.177825 4.473433 34.265296 1.780665
2003-06-18 09:11:03 51°15.5 2°40.55 18.250472 4.472483 34.251625 1.746956
2003-06-18 09:11:09 51°15.52 2°40.56 17.844668 4.47818 34.301091 1.746956
2003-06-18 09:11:13 51°15.53 2°40.57 17.951551 4.474699 34.263248 1.780665
2003-06-18 09:11:17 51°15.55 2°40.57 18.09113 4.471534 34.236117 1.746956
2003-06-18 09:11:23 51°15.57 2°40.58 18.09113 4.471534 34.236117 1.746956
2003-06-18 09:11:29 51°15.59 2°40.59 18.057812 4.473855 34.253556 1.713247
2003-06-18 09:11:33 51°15.6 2°40.6 18.095247 4.476176 34.270995 1.713247
2003-06-18 09:11:37 51°15.62 2°40.6 18.026683 4.477969 34.285141 1.713247
2003-06-18 09:11:43 51°15.64 2°40.61 18.062014 4.475015 34.253066 1.713247
2003-06-18 09:11:49 51°15.66 2°40.62 18.062014 4.475015 34.253066 1.713247
2003-06-18 09:11:53 51°15.67 2°40.62 18.165945 4.471323 34.218972 1.713247
2003-06-18 09:11:57 51°15.69 2°40.63 18.064552 4.481028 34.299074 1.679537
2003-06-18 09:12:03 51°15.71 2°40.64 17.924543 4.47934 34.282151 1.713247
2003-06-18 09:12:09 51°15.73 2°40.65 18.062471 4.478813 34.277017 1.645828
2003-06-18 09:12:13 51°15.74 2°40.65 18.097825 4.479235 34.280019 1.713247
2003-06-18 09:12:17 51°15.76 2°40.66 18.097825 4.479235 34.280019 1.713247
2003-06-18 09:12:23 51°15.78 2°40.67 18.302399 4.482294 34.305007 1.645828
2003-06-18 09:12:29 51°15.8 2°40.67 18.065342 4.481345 34.297485 1.645828
2003-06-18 09:12:33 51°15.81 2°40.68 18.064177 4.483138 34.309781 1.645828
2003-06-18 09:12:37 51°15.83 2°40.69 17.999622 4.482611 34.30649 1.645828
2003-06-18 09:12:43 51°15.85 2°40.69 18.205855 4.482611 34.30649 1.645828
2003-06-18 09:12:49 51°15.87 2°40.7 18.205855 4.482611 34.30649 1.645828
2003-06-18 09:12:53 51°15.89 2°40.71 18.139686 4.482505 34.304357 1.645828
2003-06-18 09:12:57 51°15.9 2°40.71 18.004494 4.482927 34.30613 1.612118
2003-06-18 09:13:03 51°15.92 2°40.72 18.106599 4.483138 34.308552 1.645828
2003-06-18 09:13:09 51°15.94 2°40.73 17.971217 4.482505 34.303128 1.612118
2003-06-18 09:13:13 51°15.96 2°40.73 18.173755 4.482821 34.303997 1.612118
2003-06-18 09:13:17 51°15.97 2°40.74 18.173755 4.482821 34.303997 1.612118
2003-06-18 09:13:23 51°15.99 2°40.75 17.93213 4.481872 34.295247 1.578409
2003-06-18 09:13:29 51°16.01 2°40.75 18.134408 4.482716 34.300021 1.578409
2003-06-18 09:13:33 51°16.03 2°40.76 17.92692 4.483243 34.304541 1.612118
2003-06-18 09:13:37 51°16.04 2°40.77 18.131707 4.483665 34.305699 1.578409
2003-06-18 09:13:43 51°16.06 2°40.77 18.198465 4.483349 34.302987 1.5447
2003-06-18 09:13:49 51°16.08 2°40.78 18.198465 4.483349 34.302987 1.5447
2003-06-18 09:13:53 51°16.1 2°40.79 18.195766 4.482927 34.302443 1.578409
2003-06-18 09:13:57 51°16.11 2°40.79 18.366923 4.483032 34.302733 1.578409
2003-06-18 09:14:03 51°16.13 2°40.8 18.094374 4.483032 34.303961 1.5447
2003-06-18 09:14:09 51°16.15 2°40.81 17.922918 4.483032 34.303961 1.578409
2003-06-18 09:14:13 51°16.17 2°40.81 17.992501 4.483454 34.311879 1.578409
2003-06-18 09:14:17 51°16.18 2°40.82 17.92396 4.482927 34.30613 1.5447
2003-06-18 09:14:23 51°16.2 2°40.83 17.92396 4.482927 34.30613 1.5447
2003-06-18 09:14:29 51°16.22 2°40.83 17.960468 4.483665 34.314916 1.5447
2003-06-18 09:14:33 51°16.24 2°40.84 17.893313 4.483033 34.311336 1.477281
2003-06-18 09:14:37 51°16.25 2°40.84 17.89519 4.483349 34.311589 1.51099
2003-06-18 09:14:43 51°16.27 2°40.85 18.205232 4.481661 34.301426 1.51099
2003-06-18 09:14:49 51°16.3 2°40.86 18.245452 4.48356 34.315856 1.477281
2003-06-18 09:14:53 51°16.31 2°40.86 18.245452 4.48356 34.315856 1.477281
2003-06-18 09:14:57 51°16.32 2°40.87 18.306131 4.484087 34.317303 1.443571
2003-06-18 09:15:03 51°16.34 2°40.87 18.226943 4.483349 34.311589 1.477281
2003-06-18 09:15:09 51°16.36 2°40.88 17.960176 4.482927 34.306744 1.443571
2003-06-18 09:15:13 51°16.37 2°40.88 17.929921 4.482716 34.305551 1.443571